﻿<?xml version="1.0" encoding="UTF-8"?>
<gpx version="1.1" creator="GpxTraceNet3.2"
xmlns:xsi="http://www.w3.org/2001/XMLSchema-instance" xmlns="http://www.topografix.com/GPX/1/1"
xsi:schemaLocation="http://www.topografix.com/GPX/1/1 http://www.topografix.com/GPX/1/1/gpx.xsd">
<trk>
<name>Apt-Rustrel on GPSies.com</name>
<trkseg>
<trkpt lat="43.929197" lon="5.453043">
<ele>376.00000</ele>
<time>2010-10-31T22:49:50Z</time>
</trkpt>
<trkpt lat="43.928782" lon="5.452611">
<ele>373.00000</ele>
<time>2010-10-31T22:50:11Z</time>
</trkpt>
<trkpt lat="43.928784" lon="5.452624">
<ele>373.00000</ele>
<time>2010-10-31T22:50:12Z</time>
</trkpt>
<trkpt lat="43.928766" lon="5.452667">
<ele>373.00000</ele>
<time>2010-10-31T22:50:13Z</time>
</trkpt>
<trkpt lat="43.928798" lon="5.452756">
<ele>373.00000</ele>
<time>2010-10-31T22:50:16Z</time>
</trkpt>
<trkpt lat="43.928885" lon="5.452844">
<ele>373.00000</ele>
<time>2010-10-31T22:50:20Z</time>
</trkpt>
<trkpt lat="43.928998" lon="5.452892">
<ele>373.00000</ele>
<time>2010-10-31T22:50:25Z</time>
</trkpt>
<trkpt lat="43.929014" lon="5.452904">
<ele>373.00000</ele>
<time>2010-10-31T22:50:26Z</time>
</trkpt>
<trkpt lat="43.929031" lon="5.452957">
<ele>376.00000</ele>
<time>2010-10-31T22:50:27Z</time>
</trkpt>
<trkpt lat="43.929035" lon="5.452963">
<ele>376.00000</ele>
<time>2010-10-31T22:50:28Z</time>
</trkpt>
<trkpt lat="43.929041" lon="5.452977">
<ele>376.00000</ele>
<time>2010-10-31T22:50:28Z</time>
</trkpt>
<trkpt lat="43.929106" lon="5.453115">
<ele>376.00000</ele>
<time>2010-10-31T22:50:33Z</time>
</trkpt>
<trkpt lat="43.929173" lon="5.453240">
<ele>376.00000</ele>
<time>2010-10-31T22:50:37Z</time>
</trkpt>
<trkpt lat="43.929258" lon="5.453431">
<ele>376.00000</ele>
<time>2010-10-31T22:50:44Z</time>
</trkpt>
<trkpt lat="43.929296" lon="5.453610">
<ele>376.00000</ele>
<time>2010-10-31T22:50:49Z</time>
</trkpt>
<trkpt lat="43.929324" lon="5.453823">
<ele>378.00000</ele>
<time>2010-10-31T22:50:55Z</time>
</trkpt>
<trkpt lat="43.929367" lon="5.453988">
<ele>378.00000</ele>
<time>2010-10-31T22:51:00Z</time>
</trkpt>
<trkpt lat="43.929449" lon="5.454131">
<ele>378.00000</ele>
<time>2010-10-31T22:51:06Z</time>
</trkpt>
<trkpt lat="43.929532" lon="5.454254">
<ele>378.00000</ele>
<time>2010-10-31T22:51:11Z</time>
</trkpt>
<trkpt lat="43.929566" lon="5.454321">
<ele>378.00000</ele>
<time>2010-10-31T22:51:13Z</time>
</trkpt>
<trkpt lat="43.929631" lon="5.454467">
<ele>387.00000</ele>
<time>2010-10-31T22:51:18Z</time>
</trkpt>
<trkpt lat="43.929716" lon="5.454651">
<ele>387.00000</ele>
<time>2010-10-31T22:51:24Z</time>
</trkpt>
<trkpt lat="43.929772" lon="5.454823">
<ele>387.00000</ele>
<time>2010-10-31T22:51:30Z</time>
</trkpt>
<trkpt lat="43.929826" lon="5.455034">
<ele>387.00000</ele>
<time>2010-10-31T22:51:36Z</time>
</trkpt>
<trkpt lat="43.929862" lon="5.455241">
<ele>387.00000</ele>
<time>2010-10-31T22:51:42Z</time>
</trkpt>
<trkpt lat="43.929863" lon="5.455386">
<ele>387.00000</ele>
<time>2010-10-31T22:51:46Z</time>
</trkpt>
<trkpt lat="43.929882" lon="5.455591">
<ele>393.00000</ele>
<time>2010-10-31T22:51:52Z</time>
</trkpt>
<trkpt lat="43.929900" lon="5.455764">
<ele>393.00000</ele>
<time>2010-10-31T22:51:57Z</time>
</trkpt>
<trkpt lat="43.929945" lon="5.455946">
<ele>393.00000</ele>
<time>2010-10-31T22:52:03Z</time>
</trkpt>
<trkpt lat="43.929995" lon="5.456090">
<ele>393.00000</ele>
<time>2010-10-31T22:52:08Z</time>
</trkpt>
<trkpt lat="43.930101" lon="5.456239">
<ele>393.00000</ele>
<time>2010-10-31T22:52:14Z</time>
</trkpt>
<trkpt lat="43.930217" lon="5.456402">
<ele>398.00000</ele>
<time>2010-10-31T22:52:20Z</time>
</trkpt>
<trkpt lat="43.930339" lon="5.456465">
<ele>398.00000</ele>
<time>2010-10-31T22:52:25Z</time>
</trkpt>
<trkpt lat="43.930467" lon="5.456493">
<ele>398.00000</ele>
<time>2010-10-31T22:52:31Z</time>
</trkpt>
<trkpt lat="43.930614" lon="5.456517">
<ele>398.00000</ele>
<time>2010-10-31T22:52:36Z</time>
</trkpt>
<trkpt lat="43.930718" lon="5.456530">
<ele>398.00000</ele>
<time>2010-10-31T22:52:41Z</time>
</trkpt>
<trkpt lat="43.930842" lon="5.456583">
<ele>398.00000</ele>
<time>2010-10-31T22:52:46Z</time>
</trkpt>
<trkpt lat="43.930958" lon="5.456708">
<ele>398.00000</ele>
<time>2010-10-31T22:52:52Z</time>
</trkpt>
<trkpt lat="43.931055" lon="5.456827">
<ele>398.00000</ele>
<time>2010-10-31T22:52:57Z</time>
</trkpt>
<trkpt lat="43.931190" lon="5.456935">
<ele>398.00000</ele>
<time>2010-10-31T22:53:03Z</time>
</trkpt>
<trkpt lat="43.931299" lon="5.457010">
<ele>406.00000</ele>
<time>2010-10-31T22:53:08Z</time>
</trkpt>
<trkpt lat="43.931453" lon="5.457109">
<ele>406.00000</ele>
<time>2010-10-31T22:53:15Z</time>
</trkpt>
<trkpt lat="43.931626" lon="5.457124">
<ele>406.00000</ele>
<time>2010-10-31T22:53:22Z</time>
</trkpt>
<trkpt lat="43.931762" lon="5.457160">
<ele>406.00000</ele>
<time>2010-10-31T22:53:27Z</time>
</trkpt>
<trkpt lat="43.931777" lon="5.457171">
<ele>406.00000</ele>
<time>2010-10-31T22:53:28Z</time>
</trkpt>
<trkpt lat="43.931776" lon="5.457272">
<ele>406.00000</ele>
<time>2010-10-31T22:53:31Z</time>
</trkpt>
<trkpt lat="43.931684" lon="5.457351">
<ele>406.00000</ele>
<time>2010-10-31T22:53:35Z</time>
</trkpt>
<trkpt lat="43.931642" lon="5.457453">
<ele>406.00000</ele>
<time>2010-10-31T22:53:39Z</time>
</trkpt>
<trkpt lat="43.931641" lon="5.457531">
<ele>406.00000</ele>
<time>2010-10-31T22:53:41Z</time>
</trkpt>
<trkpt lat="43.931672" lon="5.457784">
<ele>406.00000</ele>
<time>2010-10-31T22:53:48Z</time>
</trkpt>
<trkpt lat="43.931610" lon="5.457980">
<ele>407.00000</ele>
<time>2010-10-31T22:53:54Z</time>
</trkpt>
<trkpt lat="43.931587" lon="5.458038">
<ele>407.00000</ele>
<time>2010-10-31T22:53:56Z</time>
</trkpt>
<trkpt lat="43.931511" lon="5.458297">
<ele>407.00000</ele>
<time>2010-10-31T22:54:04Z</time>
</trkpt>
<trkpt lat="43.931491" lon="5.458367">
<ele>407.00000</ele>
<time>2010-10-31T22:54:07Z</time>
</trkpt>
<trkpt lat="43.931382" lon="5.458700">
<ele>407.00000</ele>
<time>2010-10-31T22:54:17Z</time>
</trkpt>
<trkpt lat="43.931188" lon="5.459003">
<ele>390.00000</ele>
<time>2010-10-31T22:54:29Z</time>
</trkpt>
<trkpt lat="43.931061" lon="5.459150">
<ele>390.00000</ele>
<time>2010-10-31T22:54:35Z</time>
</trkpt>
<trkpt lat="43.930859" lon="5.459392">
<ele>390.00000</ele>
<time>2010-10-31T22:54:46Z</time>
</trkpt>
<trkpt lat="43.930842" lon="5.459416">
<ele>390.00000</ele>
<time>2010-10-31T22:54:47Z</time>
</trkpt>
<trkpt lat="43.930711" lon="5.459522">
<ele>390.00000</ele>
<time>2010-10-31T22:54:53Z</time>
</trkpt>
<trkpt lat="43.930620" lon="5.459600">
<ele>392.00000</ele>
<time>2010-10-31T22:54:57Z</time>
</trkpt>
<trkpt lat="43.930489" lon="5.459660">
<ele>392.00000</ele>
<time>2010-10-31T22:55:03Z</time>
</trkpt>
<trkpt lat="43.930345" lon="5.459890">
<ele>373.00000</ele>
<time>2010-10-31T22:55:12Z</time>
</trkpt>
<trkpt lat="43.930194" lon="5.460067">
<ele>373.00000</ele>
<time>2010-10-31T22:55:20Z</time>
</trkpt>
<trkpt lat="43.930125" lon="5.460148">
<ele>373.00000</ele>
<time>2010-10-31T22:55:23Z</time>
</trkpt>
<trkpt lat="43.929968" lon="5.460410">
<ele>373.00000</ele>
<time>2010-10-31T22:55:33Z</time>
</trkpt>
<trkpt lat="43.929942" lon="5.460483">
<ele>372.00000</ele>
<time>2010-10-31T22:55:35Z</time>
</trkpt>
<trkpt lat="43.929895" lon="5.460629">
<ele>372.00000</ele>
<time>2010-10-31T22:55:40Z</time>
</trkpt>
<trkpt lat="43.929849" lon="5.460830">
<ele>372.00000</ele>
<time>2010-10-31T22:55:46Z</time>
</trkpt>
<trkpt lat="43.929792" lon="5.461097">
<ele>372.00000</ele>
<time>2010-10-31T22:55:54Z</time>
</trkpt>
<trkpt lat="43.929758" lon="5.461219">
<ele>372.00000</ele>
<time>2010-10-31T22:55:58Z</time>
</trkpt>
<trkpt lat="43.929751" lon="5.461272">
<ele>373.00000</ele>
<time>2010-10-31T22:55:59Z</time>
</trkpt>
<trkpt lat="43.929680" lon="5.461377">
<ele>373.00000</ele>
<time>2010-10-31T22:56:04Z</time>
</trkpt>
<trkpt lat="43.929660" lon="5.461395">
<ele>373.00000</ele>
<time>2010-10-31T22:56:05Z</time>
</trkpt>
<trkpt lat="43.929532" lon="5.461525">
<ele>355.00000</ele>
<time>2010-10-31T22:56:11Z</time>
</trkpt>
<trkpt lat="43.929475" lon="5.461573">
<ele>355.00000</ele>
<time>2010-10-31T22:56:14Z</time>
</trkpt>
<trkpt lat="43.929449" lon="5.461814">
<ele>355.00000</ele>
<time>2010-10-31T22:56:21Z</time>
</trkpt>
<trkpt lat="43.929424" lon="5.462009">
<ele>355.00000</ele>
<time>2010-10-31T22:56:26Z</time>
</trkpt>
<trkpt lat="43.929359" lon="5.462247">
<ele>355.00000</ele>
<time>2010-10-31T22:56:34Z</time>
</trkpt>
<trkpt lat="43.929336" lon="5.462381">
<ele>355.00000</ele>
<time>2010-10-31T22:56:38Z</time>
</trkpt>
<trkpt lat="43.929282" lon="5.462672">
<ele>355.00000</ele>
<time>2010-10-31T22:56:46Z</time>
</trkpt>
<trkpt lat="43.929197" lon="5.462921">
<ele>359.00000</ele>
<time>2010-10-31T22:56:54Z</time>
</trkpt>
<trkpt lat="43.929136" lon="5.463021">
<ele>359.00000</ele>
<time>2010-10-31T22:56:58Z</time>
</trkpt>
<trkpt lat="43.929086" lon="5.463196">
<ele>359.00000</ele>
<time>2010-10-31T22:57:03Z</time>
</trkpt>
<trkpt lat="43.929001" lon="5.463442">
<ele>359.00000</ele>
<time>2010-10-31T22:57:11Z</time>
</trkpt>
<trkpt lat="43.928899" lon="5.463777">
<ele>363.00000</ele>
<time>2010-10-31T22:57:22Z</time>
</trkpt>
<trkpt lat="43.928806" lon="5.464038">
<ele>363.00000</ele>
<time>2010-10-31T22:57:30Z</time>
</trkpt>
<trkpt lat="43.928723" lon="5.464315">
<ele>354.00000</ele>
<time>2010-10-31T22:57:39Z</time>
</trkpt>
<trkpt lat="43.928645" lon="5.464552">
<ele>354.00000</ele>
<time>2010-10-31T22:57:46Z</time>
</trkpt>
<trkpt lat="43.928565" lon="5.464836">
<ele>358.00000</ele>
<time>2010-10-31T22:57:55Z</time>
</trkpt>
<trkpt lat="43.928504" lon="5.465050">
<ele>358.00000</ele>
<time>2010-10-31T22:58:02Z</time>
</trkpt>
<trkpt lat="43.928435" lon="5.465356">
<ele>358.00000</ele>
<time>2010-10-31T22:58:11Z</time>
</trkpt>
<trkpt lat="43.928407" lon="5.465701">
<ele>363.00000</ele>
<time>2010-10-31T22:58:21Z</time>
</trkpt>
<trkpt lat="43.928389" lon="5.465913">
<ele>363.00000</ele>
<time>2010-10-31T22:58:27Z</time>
</trkpt>
<trkpt lat="43.928357" lon="5.466302">
<ele>369.00000</ele>
<time>2010-10-31T22:58:38Z</time>
</trkpt>
<trkpt lat="43.928342" lon="5.466475">
<ele>369.00000</ele>
<time>2010-10-31T22:58:43Z</time>
</trkpt>
<trkpt lat="43.928292" lon="5.466731">
<ele>369.00000</ele>
<time>2010-10-31T22:58:51Z</time>
</trkpt>
<trkpt lat="43.928227" lon="5.466960">
<ele>369.00000</ele>
<time>2010-10-31T22:58:58Z</time>
</trkpt>
<trkpt lat="43.928125" lon="5.467174">
<ele>375.00000</ele>
<time>2010-10-31T22:59:06Z</time>
</trkpt>
<trkpt lat="43.928002" lon="5.467452">
<ele>375.00000</ele>
<time>2010-10-31T22:59:15Z</time>
</trkpt>
<trkpt lat="43.927898" lon="5.467751">
<ele>366.00000</ele>
<time>2010-10-31T22:59:25Z</time>
</trkpt>
<trkpt lat="43.927797" lon="5.468123">
<ele>371.00000</ele>
<time>2010-10-31T22:59:36Z</time>
</trkpt>
<trkpt lat="43.927733" lon="5.468437">
<ele>371.00000</ele>
<time>2010-10-31T22:59:45Z</time>
</trkpt>
<trkpt lat="43.927702" lon="5.468694">
<ele>371.00000</ele>
<time>2010-10-31T22:59:53Z</time>
</trkpt>
<trkpt lat="43.927720" lon="5.468918">
<ele>374.00000</ele>
<time>2010-10-31T22:59:59Z</time>
</trkpt>
<trkpt lat="43.927732" lon="5.469077">
<ele>374.00000</ele>
<time>2010-10-31T23:00:04Z</time>
</trkpt>
<trkpt lat="43.927738" lon="5.469195">
<ele>374.00000</ele>
<time>2010-10-31T23:00:08Z</time>
</trkpt>
<trkpt lat="43.927742" lon="5.469384">
<ele>374.00000</ele>
<time>2010-10-31T23:00:13Z</time>
</trkpt>
<trkpt lat="43.927766" lon="5.469635">
<ele>371.00000</ele>
<time>2010-10-31T23:00:20Z</time>
</trkpt>
<trkpt lat="43.927821" lon="5.469882">
<ele>371.00000</ele>
<time>2010-10-31T23:00:28Z</time>
</trkpt>
<trkpt lat="43.927869" lon="5.470079">
<ele>371.00000</ele>
<time>2010-10-31T23:00:34Z</time>
</trkpt>
<trkpt lat="43.928015" lon="5.470575">
<ele>396.00000</ele>
<time>2010-10-31T23:00:49Z</time>
</trkpt>
<trkpt lat="43.928137" lon="5.470948">
<ele>396.00000</ele>
<time>2010-10-31T23:01:01Z</time>
</trkpt>
<trkpt lat="43.928182" lon="5.471271">
<ele>398.00000</ele>
<time>2010-10-31T23:01:10Z</time>
</trkpt>
<trkpt lat="43.928107" lon="5.471485">
<ele>398.00000</ele>
<time>2010-10-31T23:01:17Z</time>
</trkpt>
<trkpt lat="43.927951" lon="5.471810">
<ele>398.00000</ele>
<time>2010-10-31T23:01:29Z</time>
</trkpt>
<trkpt lat="43.927887" lon="5.472114">
<ele>379.00000</ele>
<time>2010-10-31T23:01:38Z</time>
</trkpt>
<trkpt lat="43.927885" lon="5.472392">
<ele>379.00000</ele>
<time>2010-10-31T23:01:46Z</time>
</trkpt>
<trkpt lat="43.927915" lon="5.472569">
<ele>379.00000</ele>
<time>2010-10-31T23:01:51Z</time>
</trkpt>
<trkpt lat="43.927930" lon="5.472689">
<ele>396.00000</ele>
<time>2010-10-31T23:01:54Z</time>
</trkpt>
<trkpt lat="43.927944" lon="5.473206">
<ele>397.00000</ele>
<time>2010-10-31T23:02:09Z</time>
</trkpt>
<trkpt lat="43.927905" lon="5.473756">
<ele>380.00000</ele>
<time>2010-10-31T23:02:25Z</time>
</trkpt>
<trkpt lat="43.927877" lon="5.473986">
<ele>380.00000</ele>
<time>2010-10-31T23:02:32Z</time>
</trkpt>
<trkpt lat="43.927828" lon="5.474295">
<ele>380.00000</ele>
<time>2010-10-31T23:02:41Z</time>
</trkpt>
<trkpt lat="43.927757" lon="5.474568">
<ele>380.00000</ele>
<time>2010-10-31T23:02:50Z</time>
</trkpt>
<trkpt lat="43.927698" lon="5.474780">
<ele>385.00000</ele>
<time>2010-10-31T23:02:56Z</time>
</trkpt>
<trkpt lat="43.927631" lon="5.475023">
<ele>385.00000</ele>
<time>2010-10-31T23:03:04Z</time>
</trkpt>
<trkpt lat="43.927550" lon="5.475323">
<ele>385.00000</ele>
<time>2010-10-31T23:03:13Z</time>
</trkpt>
<trkpt lat="43.927533" lon="5.475563">
<ele>393.00000</ele>
<time>2010-10-31T23:03:20Z</time>
</trkpt>
<trkpt lat="43.927521" lon="5.475838">
<ele>393.00000</ele>
<time>2010-10-31T23:03:28Z</time>
</trkpt>
<trkpt lat="43.927457" lon="5.476077">
<ele>393.00000</ele>
<time>2010-10-31T23:03:35Z</time>
</trkpt>
<trkpt lat="43.927398" lon="5.476278">
<ele>400.00000</ele>
<time>2010-10-31T23:03:41Z</time>
</trkpt>
<trkpt lat="43.927333" lon="5.476470">
<ele>400.00000</ele>
<time>2010-10-31T23:03:47Z</time>
</trkpt>
<trkpt lat="43.927297" lon="5.476660">
<ele>400.00000</ele>
<time>2010-10-31T23:03:53Z</time>
</trkpt>
<trkpt lat="43.927225" lon="5.476956">
<ele>400.00000</ele>
<time>2010-10-31T23:04:02Z</time>
</trkpt>
<trkpt lat="43.927185" lon="5.477153">
<ele>406.00000</ele>
<time>2010-10-31T23:04:08Z</time>
</trkpt>
<trkpt lat="43.927134" lon="5.477340">
<ele>406.00000</ele>
<time>2010-10-31T23:04:14Z</time>
</trkpt>
<trkpt lat="43.927046" lon="5.477532">
<ele>384.00000</ele>
<time>2010-10-31T23:04:20Z</time>
</trkpt>
<trkpt lat="43.927009" lon="5.477721">
<ele>384.00000</ele>
<time>2010-10-31T23:04:26Z</time>
</trkpt>
<trkpt lat="43.927074" lon="5.477983">
<ele>388.00000</ele>
<time>2010-10-31T23:04:34Z</time>
</trkpt>
<trkpt lat="43.927077" lon="5.478173">
<ele>388.00000</ele>
<time>2010-10-31T23:04:39Z</time>
</trkpt>
<trkpt lat="43.927006" lon="5.478459">
<ele>388.00000</ele>
<time>2010-10-31T23:04:48Z</time>
</trkpt>
<trkpt lat="43.926973" lon="5.478740">
<ele>388.00000</ele>
<time>2010-10-31T23:04:56Z</time>
</trkpt>
<trkpt lat="43.926950" lon="5.479114">
<ele>393.00000</ele>
<time>2010-10-31T23:05:07Z</time>
</trkpt>
<trkpt lat="43.926886" lon="5.479496">
<ele>393.00000</ele>
<time>2010-10-31T23:05:19Z</time>
</trkpt>
<trkpt lat="43.926824" lon="5.479656">
<ele>404.00000</ele>
<time>2010-10-31T23:05:24Z</time>
</trkpt>
<trkpt lat="43.926755" lon="5.479907">
<ele>404.00000</ele>
<time>2010-10-31T23:05:32Z</time>
</trkpt>
<trkpt lat="43.926680" lon="5.480172">
<ele>404.00000</ele>
<time>2010-10-31T23:05:40Z</time>
</trkpt>
<trkpt lat="43.926613" lon="5.480446">
<ele>413.00000</ele>
<time>2010-10-31T23:05:48Z</time>
</trkpt>
<trkpt lat="43.926566" lon="5.480818">
<ele>413.00000</ele>
<time>2010-10-31T23:05:59Z</time>
</trkpt>
<trkpt lat="43.926532" lon="5.481173">
<ele>413.00000</ele>
<time>2010-10-31T23:06:09Z</time>
</trkpt>
<trkpt lat="43.926540" lon="5.481530">
<ele>418.00000</ele>
<time>2010-10-31T23:06:20Z</time>
</trkpt>
<trkpt lat="43.926527" lon="5.481857">
<ele>418.00000</ele>
<time>2010-10-31T23:06:29Z</time>
</trkpt>
<trkpt lat="43.926478" lon="5.482192">
<ele>422.00000</ele>
<time>2010-10-31T23:06:39Z</time>
</trkpt>
<trkpt lat="43.926394" lon="5.482680">
<ele>422.00000</ele>
<time>2010-10-31T23:06:53Z</time>
</trkpt>
<trkpt lat="43.926323" lon="5.483038">
<ele>431.00000</ele>
<time>2010-10-31T23:07:04Z</time>
</trkpt>
<trkpt lat="43.926276" lon="5.483304">
<ele>431.00000</ele>
<time>2010-10-31T23:07:12Z</time>
</trkpt>
<trkpt lat="43.926232" lon="5.483508">
<ele>414.00000</ele>
<time>2010-10-31T23:07:18Z</time>
</trkpt>
<trkpt lat="43.926100" lon="5.483675">
<ele>414.00000</ele>
<time>2010-10-31T23:07:25Z</time>
</trkpt>
<trkpt lat="43.925939" lon="5.483710">
<ele>414.00000</ele>
<time>2010-10-31T23:07:32Z</time>
</trkpt>
<trkpt lat="43.925732" lon="5.483659">
<ele>414.00000</ele>
<time>2010-10-31T23:07:40Z</time>
</trkpt>
<trkpt lat="43.925515" lon="5.483563">
<ele>414.00000</ele>
<time>2010-10-31T23:07:49Z</time>
</trkpt>
<trkpt lat="43.925350" lon="5.483487">
<ele>414.00000</ele>
<time>2010-10-31T23:07:56Z</time>
</trkpt>
<trkpt lat="43.925175" lon="5.483422">
<ele>414.00000</ele>
<time>2010-10-31T23:08:04Z</time>
</trkpt>
<trkpt lat="43.924955" lon="5.483497">
<ele>414.00000</ele>
<time>2010-10-31T23:08:13Z</time>
</trkpt>
<trkpt lat="43.924725" lon="5.483729">
<ele>414.00000</ele>
<time>2010-10-31T23:08:24Z</time>
</trkpt>
<trkpt lat="43.924559" lon="5.484046">
<ele>410.00000</ele>
<time>2010-10-31T23:08:35Z</time>
</trkpt>
<trkpt lat="43.924461" lon="5.484408">
<ele>410.00000</ele>
<time>2010-10-31T23:08:46Z</time>
</trkpt>
<trkpt lat="43.924351" lon="5.484620">
<ele>411.00000</ele>
<time>2010-10-31T23:08:54Z</time>
</trkpt>
<trkpt lat="43.924265" lon="5.484930">
<ele>411.00000</ele>
<time>2010-10-31T23:09:04Z</time>
</trkpt>
<trkpt lat="43.924183" lon="5.485104">
<ele>411.00000</ele>
<time>2010-10-31T23:09:10Z</time>
</trkpt>
<trkpt lat="43.924099" lon="5.485404">
<ele>411.00000</ele>
<time>2010-10-31T23:09:19Z</time>
</trkpt>
<trkpt lat="43.924113" lon="5.485603">
<ele>414.00000</ele>
<time>2010-10-31T23:09:25Z</time>
</trkpt>
<trkpt lat="43.924050" lon="5.485706">
<ele>414.00000</ele>
<time>2010-10-31T23:09:28Z</time>
</trkpt>
<trkpt lat="43.923813" lon="5.485826">
<ele>414.00000</ele>
<time>2010-10-31T23:09:39Z</time>
</trkpt>
<trkpt lat="43.923553" lon="5.486007">
<ele>405.00000</ele>
<time>2010-10-31T23:09:50Z</time>
</trkpt>
<trkpt lat="43.923310" lon="5.486357">
<ele>405.00000</ele>
<time>2010-10-31T23:10:04Z</time>
</trkpt>
<trkpt lat="43.922882" lon="5.487161">
<ele>394.00000</ele>
<time>2010-10-31T23:10:33Z</time>
</trkpt>
<trkpt lat="43.922724" lon="5.487368">
<ele>394.00000</ele>
<time>2010-10-31T23:10:42Z</time>
</trkpt>
<trkpt lat="43.922329" lon="5.487606">
<ele>394.00000</ele>
<time>2010-10-31T23:10:59Z</time>
</trkpt>
<trkpt lat="43.921373" lon="5.487704">
<ele>390.00000</ele>
<time>2010-10-31T23:11:37Z</time>
</trkpt>
<trkpt lat="43.920581" lon="5.487777">
<ele>386.00000</ele>
<time>2010-10-31T23:12:09Z</time>
</trkpt>
<trkpt lat="43.919848" lon="5.487839">
<ele>380.00000</ele>
<time>2010-10-31T23:12:39Z</time>
</trkpt>
<trkpt lat="43.919681" lon="5.487844">
<ele>380.00000</ele>
<time>2010-10-31T23:12:45Z</time>
</trkpt>
<trkpt lat="43.919412" lon="5.487752">
<ele>376.00000</ele>
<time>2010-10-31T23:12:56Z</time>
</trkpt>
<trkpt lat="43.919258" lon="5.487787">
<ele>376.00000</ele>
<time>2010-10-31T23:13:03Z</time>
</trkpt>
<trkpt lat="43.919046" lon="5.487898">
<ele>376.00000</ele>
<time>2010-10-31T23:13:12Z</time>
</trkpt>
<trkpt lat="43.918754" lon="5.487910">
<ele>376.00000</ele>
<time>2010-10-31T23:13:23Z</time>
</trkpt>
<trkpt lat="43.918337" lon="5.487950">
<ele>374.00000</ele>
<time>2010-10-31T23:13:40Z</time>
</trkpt>
<trkpt lat="43.917925" lon="5.488096">
<ele>374.00000</ele>
<time>2010-10-31T23:13:57Z</time>
</trkpt>
<trkpt lat="43.917370" lon="5.488306">
<ele>366.00000</ele>
<time>2010-10-31T23:14:20Z</time>
</trkpt>
<trkpt lat="43.916876" lon="5.488448">
<ele>357.00000</ele>
<time>2010-10-31T23:14:40Z</time>
</trkpt>
<trkpt lat="43.916658" lon="5.488503">
<ele>357.00000</ele>
<time>2010-10-31T23:14:49Z</time>
</trkpt>
<trkpt lat="43.916533" lon="5.488686">
<ele>357.00000</ele>
<time>2010-10-31T23:14:56Z</time>
</trkpt>
<trkpt lat="43.916518" lon="5.488824">
<ele>357.00000</ele>
<time>2010-10-31T23:15:00Z</time>
</trkpt>
<trkpt lat="43.916493" lon="5.489327">
<ele>357.00000</ele>
<time>2010-10-31T23:15:15Z</time>
</trkpt>
<trkpt lat="43.916493" lon="5.489874">
<ele>356.00000</ele>
<time>2010-10-31T23:15:31Z</time>
</trkpt>
<trkpt lat="43.916507" lon="5.490392">
<ele>356.00000</ele>
<time>2010-10-31T23:15:46Z</time>
</trkpt>
<trkpt lat="43.916504" lon="5.490757">
<ele>356.00000</ele>
<time>2010-10-31T23:15:56Z</time>
</trkpt>
<trkpt lat="43.916504" lon="5.490877">
<ele>356.00000</ele>
<time>2010-10-31T23:16:00Z</time>
</trkpt>
<trkpt lat="43.916544" lon="5.491316">
<ele>357.00000</ele>
<time>2010-10-31T23:16:12Z</time>
</trkpt>
<trkpt lat="43.916561" lon="5.491695">
<ele>357.00000</ele>
<time>2010-10-31T23:16:23Z</time>
</trkpt>
<trkpt lat="43.916477" lon="5.492255">
<ele>357.00000</ele>
<time>2010-10-31T23:16:40Z</time>
</trkpt>
<trkpt lat="43.916453" lon="5.492425">
<ele>357.00000</ele>
<time>2010-10-31T23:16:45Z</time>
</trkpt>
<trkpt lat="43.916458" lon="5.492658">
<ele>357.00000</ele>
<time>2010-10-31T23:16:52Z</time>
</trkpt>
<trkpt lat="43.916481" lon="5.492771">
<ele>357.00000</ele>
<time>2010-10-31T23:16:55Z</time>
</trkpt>
<trkpt lat="43.916642" lon="5.493265">
<ele>356.00000</ele>
<time>2010-10-31T23:17:11Z</time>
</trkpt>
<trkpt lat="43.916757" lon="5.493785">
<ele>356.00000</ele>
<time>2010-10-31T23:17:26Z</time>
</trkpt>
<trkpt lat="43.916846" lon="5.494185">
<ele>356.00000</ele>
<time>2010-10-31T23:17:38Z</time>
</trkpt>
<trkpt lat="43.916963" lon="5.494523">
<ele>356.00000</ele>
<time>2010-10-31T23:17:49Z</time>
</trkpt>
<trkpt lat="43.917109" lon="5.494900">
<ele>362.00000</ele>
<time>2010-10-31T23:18:02Z</time>
</trkpt>
<trkpt lat="43.917239" lon="5.495255">
<ele>362.00000</ele>
<time>2010-10-31T23:18:13Z</time>
</trkpt>
<trkpt lat="43.917378" lon="5.495715">
<ele>363.00000</ele>
<time>2010-10-31T23:18:27Z</time>
</trkpt>
<trkpt lat="43.917510" lon="5.496183">
<ele>363.00000</ele>
<time>2010-10-31T23:18:42Z</time>
</trkpt>
<trkpt lat="43.917628" lon="5.496669">
<ele>362.00000</ele>
<time>2010-10-31T23:18:57Z</time>
</trkpt>
<trkpt lat="43.917720" lon="5.497004">
<ele>362.00000</ele>
<time>2010-10-31T23:19:07Z</time>
</trkpt>
<trkpt lat="43.917779" lon="5.497167">
<ele>361.00000</ele>
<time>2010-10-31T23:19:12Z</time>
</trkpt>
<trkpt lat="43.917974" lon="5.497763">
<ele>366.00000</ele>
<time>2010-10-31T23:19:31Z</time>
</trkpt>
<trkpt lat="43.918095" lon="5.498272">
<ele>365.00000</ele>
<time>2010-10-31T23:19:47Z</time>
</trkpt>
<trkpt lat="43.918149" lon="5.498687">
<ele>365.00000</ele>
<time>2010-10-31T23:19:59Z</time>
</trkpt>
<trkpt lat="43.918211" lon="5.499048">
<ele>365.00000</ele>
<time>2010-10-31T23:20:09Z</time>
</trkpt>
<trkpt lat="43.918269" lon="5.499418">
<ele>365.00000</ele>
<time>2010-10-31T23:20:20Z</time>
</trkpt>
<trkpt lat="43.918387" lon="5.499694">
<ele>366.00000</ele>
<time>2010-10-31T23:20:30Z</time>
</trkpt>
<trkpt lat="43.918533" lon="5.499958">
<ele>366.00000</ele>
<time>2010-10-31T23:20:39Z</time>
</trkpt>
<trkpt lat="43.918671" lon="5.500155">
<ele>366.00000</ele>
<time>2010-10-31T23:20:47Z</time>
</trkpt>
<trkpt lat="43.918814" lon="5.500461">
<ele>377.00000</ele>
<time>2010-10-31T23:20:58Z</time>
</trkpt>
<trkpt lat="43.918902" lon="5.500630">
<ele>377.00000</ele>
<time>2010-10-31T23:21:04Z</time>
</trkpt>
<trkpt lat="43.918916" lon="5.500657">
<ele>377.00000</ele>
<time>2010-10-31T23:21:05Z</time>
</trkpt>
<trkpt lat="43.918923" lon="5.500658">
<ele>377.00000</ele>
<time>2010-10-31T23:21:05Z</time>
</trkpt>
<trkpt lat="43.918913" lon="5.500660">
<ele>377.00000</ele>
<time>2010-10-31T23:21:05Z</time>
</trkpt>
<trkpt lat="43.918909" lon="5.500703">
<ele>377.00000</ele>
<time>2010-10-31T23:21:07Z</time>
</trkpt>
<trkpt lat="43.918875" lon="5.500852">
<ele>377.00000</ele>
<time>2010-10-31T23:21:11Z</time>
</trkpt>
<trkpt lat="43.918775" lon="5.501051">
<ele>377.00000</ele>
<time>2010-10-31T23:21:18Z</time>
</trkpt>
<trkpt lat="43.918684" lon="5.501142">
<ele>366.00000</ele>
<time>2010-10-31T23:21:23Z</time>
</trkpt>
<trkpt lat="43.918561" lon="5.501257">
<ele>366.00000</ele>
<time>2010-10-31T23:21:29Z</time>
</trkpt>
<trkpt lat="43.918415" lon="5.501491">
<ele>366.00000</ele>
<time>2010-10-31T23:21:37Z</time>
</trkpt>
<trkpt lat="43.918197" lon="5.501862">
<ele>366.00000</ele>
<time>2010-10-31T23:21:51Z</time>
</trkpt>
<trkpt lat="43.918159" lon="5.501928">
<ele>366.00000</ele>
<time>2010-10-31T23:21:54Z</time>
</trkpt>
<trkpt lat="43.918123" lon="5.501972">
<ele>366.00000</ele>
<time>2010-10-31T23:21:56Z</time>
</trkpt>
<trkpt lat="43.918115" lon="5.501983">
<ele>366.00000</ele>
<time>2010-10-31T23:21:56Z</time>
</trkpt>
<trkpt lat="43.918094" lon="5.502008">
<ele>366.00000</ele>
<time>2010-10-31T23:21:57Z</time>
</trkpt>
<trkpt lat="43.918089" lon="5.502011">
<ele>366.00000</ele>
<time>2010-10-31T23:21:57Z</time>
</trkpt>
<trkpt lat="43.918072" lon="5.502161">
<ele>365.00000</ele>
<time>2010-10-31T23:22:02Z</time>
</trkpt>
<trkpt lat="43.918063" lon="5.502341">
<ele>365.00000</ele>
<time>2010-10-31T23:22:07Z</time>
</trkpt>
<trkpt lat="43.918037" lon="5.502619">
<ele>365.00000</ele>
<time>2010-10-31T23:22:15Z</time>
</trkpt>
<trkpt lat="43.918002" lon="5.502812">
<ele>365.00000</ele>
<time>2010-10-31T23:22:21Z</time>
</trkpt>
<trkpt lat="43.917927" lon="5.502975">
<ele>367.00000</ele>
<time>2010-10-31T23:22:26Z</time>
</trkpt>
<trkpt lat="43.917859" lon="5.503062">
<ele>374.00000</ele>
<time>2010-10-31T23:22:30Z</time>
</trkpt>
<trkpt lat="43.917779" lon="5.503174">
<ele>374.00000</ele>
<time>2010-10-31T23:22:35Z</time>
</trkpt>
<trkpt lat="43.917701" lon="5.503296">
<ele>374.00000</ele>
<time>2010-10-31T23:22:39Z</time>
</trkpt>
<trkpt lat="43.917602" lon="5.503477">
<ele>374.00000</ele>
<time>2010-10-31T23:22:46Z</time>
</trkpt>
<trkpt lat="43.917565" lon="5.503639">
<ele>374.00000</ele>
<time>2010-10-31T23:22:51Z</time>
</trkpt>
<trkpt lat="43.917555" lon="5.503772">
<ele>383.00000</ele>
<time>2010-10-31T23:22:55Z</time>
</trkpt>
<trkpt lat="43.917513" lon="5.503936">
<ele>383.00000</ele>
<time>2010-10-31T23:23:00Z</time>
</trkpt>
<trkpt lat="43.917477" lon="5.504060">
<ele>383.00000</ele>
<time>2010-10-31T23:23:04Z</time>
</trkpt>
<trkpt lat="43.917425" lon="5.504191">
<ele>383.00000</ele>
<time>2010-10-31T23:23:08Z</time>
</trkpt>
<trkpt lat="43.917347" lon="5.504305">
<ele>383.00000</ele>
<time>2010-10-31T23:23:12Z</time>
</trkpt>
<trkpt lat="43.917236" lon="5.504441">
<ele>383.00000</ele>
<time>2010-10-31T23:23:18Z</time>
</trkpt>
<trkpt lat="43.917131" lon="5.504630">
<ele>386.00000</ele>
<time>2010-10-31T23:23:25Z</time>
</trkpt>
<trkpt lat="43.917018" lon="5.504831">
<ele>382.00000</ele>
<time>2010-10-31T23:23:33Z</time>
</trkpt>
<trkpt lat="43.916980" lon="5.504905">
<ele>382.00000</ele>
<time>2010-10-31T23:23:35Z</time>
</trkpt>
<trkpt lat="43.916897" lon="5.505060">
<ele>382.00000</ele>
<time>2010-10-31T23:23:41Z</time>
</trkpt>
<trkpt lat="43.916801" lon="5.505245">
<ele>382.00000</ele>
<time>2010-10-31T23:23:47Z</time>
</trkpt>
<trkpt lat="43.916716" lon="5.505430">
<ele>389.00000</ele>
<time>2010-10-31T23:23:54Z</time>
</trkpt>
<trkpt lat="43.916634" lon="5.505641">
<ele>389.00000</ele>
<time>2010-10-31T23:24:01Z</time>
</trkpt>
<trkpt lat="43.916549" lon="5.505858">
<ele>389.00000</ele>
<time>2010-10-31T23:24:08Z</time>
</trkpt>
<trkpt lat="43.916417" lon="5.506149">
<ele>389.00000</ele>
<time>2010-10-31T23:24:18Z</time>
</trkpt>
<trkpt lat="43.916307" lon="5.506398">
<ele>391.00000</ele>
<time>2010-10-31T23:24:26Z</time>
</trkpt>
<trkpt lat="43.916166" lon="5.506718">
<ele>391.00000</ele>
<time>2010-10-31T23:24:37Z</time>
</trkpt>
<trkpt lat="43.916021" lon="5.507032">
<ele>391.00000</ele>
<time>2010-10-31T23:24:48Z</time>
</trkpt>
<trkpt lat="43.915911" lon="5.507275">
<ele>397.00000</ele>
<time>2010-10-31T23:24:56Z</time>
</trkpt>
<trkpt lat="43.915844" lon="5.507449">
<ele>397.00000</ele>
<time>2010-10-31T23:25:02Z</time>
</trkpt>
<trkpt lat="43.915797" lon="5.507645">
<ele>397.00000</ele>
<time>2010-10-31T23:25:07Z</time>
</trkpt>
<trkpt lat="43.915712" lon="5.507835">
<ele>397.00000</ele>
<time>2010-10-31T23:25:14Z</time>
</trkpt>
<trkpt lat="43.915631" lon="5.507975">
<ele>401.00000</ele>
<time>2010-10-31T23:25:19Z</time>
</trkpt>
<trkpt lat="43.915544" lon="5.508144">
<ele>401.00000</ele>
<time>2010-10-31T23:25:25Z</time>
</trkpt>
<trkpt lat="43.915457" lon="5.508296">
<ele>401.00000</ele>
<time>2010-10-31T23:25:31Z</time>
</trkpt>
<trkpt lat="43.915371" lon="5.508365">
<ele>404.00000</ele>
<time>2010-10-31T23:25:35Z</time>
</trkpt>
<trkpt lat="43.915233" lon="5.508438">
<ele>404.00000</ele>
<time>2010-10-31T23:25:41Z</time>
</trkpt>
<trkpt lat="43.915119" lon="5.508619">
<ele>404.00000</ele>
<time>2010-10-31T23:25:48Z</time>
</trkpt>
<trkpt lat="43.915046" lon="5.508830">
<ele>411.00000</ele>
<time>2010-10-31T23:25:54Z</time>
</trkpt>
<trkpt lat="43.914953" lon="5.509000">
<ele>411.00000</ele>
<time>2010-10-31T23:26:00Z</time>
</trkpt>
<trkpt lat="43.914838" lon="5.509170">
<ele>411.00000</ele>
<time>2010-10-31T23:26:07Z</time>
</trkpt>
<trkpt lat="43.914642" lon="5.509422">
<ele>411.00000</ele>
<time>2010-10-31T23:26:18Z</time>
</trkpt>
<trkpt lat="43.914460" lon="5.509599">
<ele>410.00000</ele>
<time>2010-10-31T23:26:27Z</time>
</trkpt>
<trkpt lat="43.914337" lon="5.509669">
<ele>410.00000</ele>
<time>2010-10-31T23:26:32Z</time>
</trkpt>
<trkpt lat="43.914264" lon="5.509809">
<ele>410.00000</ele>
<time>2010-10-31T23:26:37Z</time>
</trkpt>
<trkpt lat="43.914255" lon="5.509876">
<ele>410.00000</ele>
<time>2010-10-31T23:26:39Z</time>
</trkpt>
<trkpt lat="43.914269" lon="5.509909">
<ele>410.00000</ele>
<time>2010-10-31T23:26:40Z</time>
</trkpt>
<trkpt lat="43.914284" lon="5.510056">
<ele>410.00000</ele>
<time>2010-10-31T23:26:44Z</time>
</trkpt>
<trkpt lat="43.914322" lon="5.510298">
<ele>410.00000</ele>
<time>2010-10-31T23:26:52Z</time>
</trkpt>
<trkpt lat="43.914349" lon="5.510447">
<ele>413.00000</ele>
<time>2010-10-31T23:26:56Z</time>
</trkpt>
<trkpt lat="43.914243" lon="5.510577">
<ele>413.00000</ele>
<time>2010-10-31T23:27:02Z</time>
</trkpt>
<trkpt lat="43.914070" lon="5.510555">
<ele>413.00000</ele>
<time>2010-10-31T23:27:09Z</time>
</trkpt>
<trkpt lat="43.913906" lon="5.510585">
<ele>413.00000</ele>
<time>2010-10-31T23:27:15Z</time>
</trkpt>
<trkpt lat="43.913857" lon="5.510610">
<ele>413.00000</ele>
<time>2010-10-31T23:27:17Z</time>
</trkpt>
<trkpt lat="43.913691" lon="5.510683">
<ele>419.00000</ele>
<time>2010-10-31T23:27:24Z</time>
</trkpt>
<trkpt lat="43.913574" lon="5.510768">
<ele>419.00000</ele>
<time>2010-10-31T23:27:30Z</time>
</trkpt>
<trkpt lat="43.913556" lon="5.510889">
<ele>419.00000</ele>
<time>2010-10-31T23:27:33Z</time>
</trkpt>
<trkpt lat="43.913588" lon="5.511035">
<ele>419.00000</ele>
<time>2010-10-31T23:27:38Z</time>
</trkpt>
<trkpt lat="43.913606" lon="5.511203">
<ele>419.00000</ele>
<time>2010-10-31T23:27:42Z</time>
</trkpt>
<trkpt lat="43.913555" lon="5.511372">
<ele>426.00000</ele>
<time>2010-10-31T23:27:48Z</time>
</trkpt>
<trkpt lat="43.913457" lon="5.511392">
<ele>426.00000</ele>
<time>2010-10-31T23:27:52Z</time>
</trkpt>
<trkpt lat="43.913383" lon="5.511283">
<ele>426.00000</ele>
<time>2010-10-31T23:27:56Z</time>
</trkpt>
<trkpt lat="43.913286" lon="5.511278">
<ele>426.00000</ele>
<time>2010-10-31T23:28:00Z</time>
</trkpt>
<trkpt lat="43.913193" lon="5.511356">
<ele>426.00000</ele>
<time>2010-10-31T23:28:04Z</time>
</trkpt>
<trkpt lat="43.913101" lon="5.511458">
<ele>426.00000</ele>
<time>2010-10-31T23:28:09Z</time>
</trkpt>
<trkpt lat="43.912985" lon="5.511579">
<ele>426.00000</ele>
<time>2010-10-31T23:28:15Z</time>
</trkpt>
<trkpt lat="43.912855" lon="5.511717">
<ele>431.00000</ele>
<time>2010-10-31T23:28:21Z</time>
</trkpt>
<trkpt lat="43.912630" lon="5.511978">
<ele>431.00000</ele>
<time>2010-10-31T23:28:33Z</time>
</trkpt>
<trkpt lat="43.912506" lon="5.512090">
<ele>437.00000</ele>
<time>2010-10-31T23:28:39Z</time>
</trkpt>
<trkpt lat="43.912358" lon="5.512222">
<ele>437.00000</ele>
<time>2010-10-31T23:28:46Z</time>
</trkpt>
<trkpt lat="43.912219" lon="5.512355">
<ele>437.00000</ele>
<time>2010-10-31T23:28:53Z</time>
</trkpt>
<trkpt lat="43.912137" lon="5.512535">
<ele>437.00000</ele>
<time>2010-10-31T23:28:59Z</time>
</trkpt>
<trkpt lat="43.912161" lon="5.512780">
<ele>437.00000</ele>
<time>2010-10-31T23:29:06Z</time>
</trkpt>
<trkpt lat="43.912199" lon="5.513045">
<ele>435.00000</ele>
<time>2010-10-31T23:29:14Z</time>
</trkpt>
<trkpt lat="43.912186" lon="5.513212">
<ele>435.00000</ele>
<time>2010-10-31T23:29:19Z</time>
</trkpt>
<trkpt lat="43.912096" lon="5.513318">
<ele>435.00000</ele>
<time>2010-10-31T23:29:23Z</time>
</trkpt>
<trkpt lat="43.911960" lon="5.513308">
<ele>443.00000</ele>
<time>2010-10-31T23:29:29Z</time>
</trkpt>
<trkpt lat="43.911819" lon="5.513273">
<ele>443.00000</ele>
<time>2010-10-31T23:29:35Z</time>
</trkpt>
<trkpt lat="43.911662" lon="5.513287">
<ele>443.00000</ele>
<time>2010-10-31T23:29:41Z</time>
</trkpt>
<trkpt lat="43.911500" lon="5.513331">
<ele>443.00000</ele>
<time>2010-10-31T23:29:47Z</time>
</trkpt>
<trkpt lat="43.911422" lon="5.513304">
<ele>443.00000</ele>
<time>2010-10-31T23:29:51Z</time>
</trkpt>
<trkpt lat="43.911374" lon="5.513249">
<ele>443.00000</ele>
<time>2010-10-31T23:29:53Z</time>
</trkpt>
<trkpt lat="43.911271" lon="5.513180">
<ele>443.00000</ele>
<time>2010-10-31T23:29:58Z</time>
</trkpt>
<trkpt lat="43.911160" lon="5.513090">
<ele>455.00000</ele>
<time>2010-10-31T23:30:03Z</time>
</trkpt>
<trkpt lat="43.911013" lon="5.513025">
<ele>455.00000</ele>
<time>2010-10-31T23:30:09Z</time>
</trkpt>
<trkpt lat="43.910897" lon="5.513002">
<ele>455.00000</ele>
<time>2010-10-31T23:30:14Z</time>
</trkpt>
<trkpt lat="43.910760" lon="5.513012">
<ele>455.00000</ele>
<time>2010-10-31T23:30:19Z</time>
</trkpt>
<trkpt lat="43.910657" lon="5.513033">
<ele>455.00000</ele>
<time>2010-10-31T23:30:23Z</time>
</trkpt>
<trkpt lat="43.910507" lon="5.513114">
<ele>455.00000</ele>
<time>2010-10-31T23:30:30Z</time>
</trkpt>
<trkpt lat="43.910466" lon="5.513149">
<ele>455.00000</ele>
<time>2010-10-31T23:30:32Z</time>
</trkpt>
<trkpt lat="43.910416" lon="5.513228">
<ele>461.00000</ele>
<time>2010-10-31T23:30:35Z</time>
</trkpt>
<trkpt lat="43.910279" lon="5.513315">
<ele>461.00000</ele>
<time>2010-10-31T23:30:41Z</time>
</trkpt>
<trkpt lat="43.910265" lon="5.513321">
<ele>461.00000</ele>
<time>2010-10-31T23:30:41Z</time>
</trkpt>
<trkpt lat="43.910216" lon="5.513393">
<ele>461.00000</ele>
<time>2010-10-31T23:30:44Z</time>
</trkpt>
<trkpt lat="43.910125" lon="5.513448">
<ele>461.00000</ele>
<time>2010-10-31T23:30:48Z</time>
</trkpt>
<trkpt lat="43.910107" lon="5.513468">
<ele>461.00000</ele>
<time>2010-10-31T23:30:49Z</time>
</trkpt>
<trkpt lat="43.910039" lon="5.513591">
<ele>461.00000</ele>
<time>2010-10-31T23:30:54Z</time>
</trkpt>
<trkpt lat="43.910022" lon="5.513647">
<ele>461.00000</ele>
<time>2010-10-31T23:30:55Z</time>
</trkpt>
<trkpt lat="43.909953" lon="5.513750">
<ele>477.00000</ele>
<time>2010-10-31T23:30:59Z</time>
</trkpt>
<trkpt lat="43.909840" lon="5.513832">
<ele>477.00000</ele>
<time>2010-10-31T23:31:05Z</time>
</trkpt>
<trkpt lat="43.909732" lon="5.513875">
<ele>477.00000</ele>
<time>2010-10-31T23:31:09Z</time>
</trkpt>
<trkpt lat="43.909609" lon="5.513884">
<ele>477.00000</ele>
<time>2010-10-31T23:31:14Z</time>
</trkpt>
<trkpt lat="43.909461" lon="5.513857">
<ele>484.00000</ele>
<time>2010-10-31T23:31:20Z</time>
</trkpt>
<trkpt lat="43.909371" lon="5.513772">
<ele>484.00000</ele>
<time>2010-10-31T23:31:24Z</time>
</trkpt>
<trkpt lat="43.909258" lon="5.513697">
<ele>472.00000</ele>
<time>2010-10-31T23:31:29Z</time>
</trkpt>
<trkpt lat="43.909122" lon="5.513664">
<ele>472.00000</ele>
<time>2010-10-31T23:31:35Z</time>
</trkpt>
<trkpt lat="43.909024" lon="5.513628">
<ele>472.00000</ele>
<time>2010-10-31T23:31:39Z</time>
</trkpt>
<trkpt lat="43.908874" lon="5.513595">
<ele>472.00000</ele>
<time>2010-10-31T23:31:45Z</time>
</trkpt>
<trkpt lat="43.908787" lon="5.513624">
<ele>472.00000</ele>
<time>2010-10-31T23:31:49Z</time>
</trkpt>
<trkpt lat="43.908666" lon="5.513691">
<ele>479.00000</ele>
<time>2010-10-31T23:31:54Z</time>
</trkpt>
<trkpt lat="43.908553" lon="5.513715">
<ele>479.00000</ele>
<time>2010-10-31T23:31:58Z</time>
</trkpt>
<trkpt lat="43.908415" lon="5.513711">
<ele>479.00000</ele>
<time>2010-10-31T23:32:04Z</time>
</trkpt>
<trkpt lat="43.908236" lon="5.513664">
<ele>479.00000</ele>
<time>2010-10-31T23:32:11Z</time>
</trkpt>
<trkpt lat="43.908131" lon="5.513657">
<ele>479.00000</ele>
<time>2010-10-31T23:32:15Z</time>
</trkpt>
<trkpt lat="43.908026" lon="5.513648">
<ele>479.00000</ele>
<time>2010-10-31T23:32:20Z</time>
</trkpt>
<trkpt lat="43.907890" lon="5.513640">
<ele>491.00000</ele>
<time>2010-10-31T23:32:25Z</time>
</trkpt>
<trkpt lat="43.907740" lon="5.513632">
<ele>491.00000</ele>
<time>2010-10-31T23:32:31Z</time>
</trkpt>
<trkpt lat="43.907579" lon="5.513632">
<ele>491.00000</ele>
<time>2010-10-31T23:32:38Z</time>
</trkpt>
<trkpt lat="43.907438" lon="5.513613">
<ele>491.00000</ele>
<time>2010-10-31T23:32:43Z</time>
</trkpt>
<trkpt lat="43.907312" lon="5.513557">
<ele>491.00000</ele>
<time>2010-10-31T23:32:48Z</time>
</trkpt>
<trkpt lat="43.907161" lon="5.513512">
<ele>491.00000</ele>
<time>2010-10-31T23:32:55Z</time>
</trkpt>
<trkpt lat="43.907040" lon="5.513460">
<ele>514.00000</ele>
<time>2010-10-31T23:33:00Z</time>
</trkpt>
<trkpt lat="43.906919" lon="5.513408">
<ele>514.00000</ele>
<time>2010-10-31T23:33:05Z</time>
</trkpt>
<trkpt lat="43.906773" lon="5.513318">
<ele>514.00000</ele>
<time>2010-10-31T23:33:11Z</time>
</trkpt>
<trkpt lat="43.906665" lon="5.513259">
<ele>514.00000</ele>
<time>2010-10-31T23:33:16Z</time>
</trkpt>
<trkpt lat="43.906548" lon="5.513174">
<ele>514.00000</ele>
<time>2010-10-31T23:33:21Z</time>
</trkpt>
<trkpt lat="43.906481" lon="5.513046">
<ele>514.00000</ele>
<time>2010-10-31T23:33:26Z</time>
</trkpt>
<trkpt lat="43.906444" lon="5.512877">
<ele>496.00000</ele>
<time>2010-10-31T23:33:31Z</time>
</trkpt>
<trkpt lat="43.906405" lon="5.512668">
<ele>496.00000</ele>
<time>2010-10-31T23:33:37Z</time>
</trkpt>
<trkpt lat="43.906355" lon="5.512463">
<ele>496.00000</ele>
<time>2010-10-31T23:33:43Z</time>
</trkpt>
<trkpt lat="43.906271" lon="5.512250">
<ele>496.00000</ele>
<time>2010-10-31T23:33:50Z</time>
</trkpt>
<trkpt lat="43.906176" lon="5.512081">
<ele>514.00000</ele>
<time>2010-10-31T23:33:56Z</time>
</trkpt>
<trkpt lat="43.906060" lon="5.511921">
<ele>514.00000</ele>
<time>2010-10-31T23:34:03Z</time>
</trkpt>
<trkpt lat="43.905939" lon="5.511785">
<ele>514.00000</ele>
<time>2010-10-31T23:34:09Z</time>
</trkpt>
<trkpt lat="43.905832" lon="5.511655">
<ele>514.00000</ele>
<time>2010-10-31T23:34:15Z</time>
</trkpt>
<trkpt lat="43.905735" lon="5.511543">
<ele>514.00000</ele>
<time>2010-10-31T23:34:20Z</time>
</trkpt>
<trkpt lat="43.905634" lon="5.511565">
<ele>514.00000</ele>
<time>2010-10-31T23:34:24Z</time>
</trkpt>
<trkpt lat="43.905504" lon="5.511577">
<ele>514.00000</ele>
<time>2010-10-31T23:34:29Z</time>
</trkpt>
<trkpt lat="43.905393" lon="5.511591">
<ele>526.00000</ele>
<time>2010-10-31T23:34:34Z</time>
</trkpt>
<trkpt lat="43.905332" lon="5.511579">
<ele>526.00000</ele>
<time>2010-10-31T23:34:36Z</time>
</trkpt>
<trkpt lat="43.905285" lon="5.511684">
<ele>526.00000</ele>
<time>2010-10-31T23:34:40Z</time>
</trkpt>
<trkpt lat="43.905335" lon="5.511741">
<ele>526.00000</ele>
<time>2010-10-31T23:34:42Z</time>
</trkpt>
<trkpt lat="43.905342" lon="5.511751">
<ele>526.00000</ele>
<time>2010-10-31T23:34:43Z</time>
</trkpt>
<trkpt lat="43.905381" lon="5.511787">
<ele>526.00000</ele>
<time>2010-10-31T23:34:45Z</time>
</trkpt>
<trkpt lat="43.905444" lon="5.511887">
<ele>514.00000</ele>
<time>2010-10-31T23:34:48Z</time>
</trkpt>
<trkpt lat="43.905525" lon="5.512015">
<ele>514.00000</ele>
<time>2010-10-31T23:34:53Z</time>
</trkpt>
<trkpt lat="43.905598" lon="5.512123">
<ele>524.00000</ele>
<time>2010-10-31T23:34:58Z</time>
</trkpt>
<trkpt lat="43.905679" lon="5.512321">
<ele>524.00000</ele>
<time>2010-10-31T23:35:04Z</time>
</trkpt>
<trkpt lat="43.905706" lon="5.512590">
<ele>524.00000</ele>
<time>2010-10-31T23:35:12Z</time>
</trkpt>
<trkpt lat="43.905683" lon="5.512884">
<ele>524.00000</ele>
<time>2010-10-31T23:35:21Z</time>
</trkpt>
<trkpt lat="43.905701" lon="5.513266">
<ele>527.00000</ele>
<time>2010-10-31T23:35:32Z</time>
</trkpt>
<trkpt lat="43.905760" lon="5.513553">
<ele>527.00000</ele>
<time>2010-10-31T23:35:40Z</time>
</trkpt>
<trkpt lat="43.905774" lon="5.513653">
<ele>527.00000</ele>
<time>2010-10-31T23:35:43Z</time>
</trkpt>
<trkpt lat="43.905710" lon="5.513725">
<ele>527.00000</ele>
<time>2010-10-31T23:35:46Z</time>
</trkpt>
<trkpt lat="43.905646" lon="5.513668">
<ele>527.00000</ele>
<time>2010-10-31T23:35:50Z</time>
</trkpt>
<trkpt lat="43.905494" lon="5.513485">
<ele>527.00000</ele>
<time>2010-10-31T23:35:58Z</time>
</trkpt>
<trkpt lat="43.905354" lon="5.513311">
<ele>535.00000</ele>
<time>2010-10-31T23:36:05Z</time>
</trkpt>
<trkpt lat="43.905192" lon="5.513121">
<ele>535.00000</ele>
<time>2010-10-31T23:36:14Z</time>
</trkpt>
<trkpt lat="43.904978" lon="5.512859">
<ele>530.00000</ele>
<time>2010-10-31T23:36:25Z</time>
</trkpt>
<trkpt lat="43.904788" lon="5.512587">
<ele>530.00000</ele>
<time>2010-10-31T23:36:36Z</time>
</trkpt>
<trkpt lat="43.904625" lon="5.512302">
<ele>530.00000</ele>
<time>2010-10-31T23:36:46Z</time>
</trkpt>
<trkpt lat="43.904427" lon="5.511967">
<ele>539.00000</ele>
<time>2010-10-31T23:36:59Z</time>
</trkpt>
<trkpt lat="43.904256" lon="5.511697">
<ele>539.00000</ele>
<time>2010-10-31T23:37:09Z</time>
</trkpt>
<trkpt lat="43.904018" lon="5.511374">
<ele>539.00000</ele>
<time>2010-10-31T23:37:23Z</time>
</trkpt>
<trkpt lat="43.903814" lon="5.511156">
<ele>531.00000</ele>
<time>2010-10-31T23:37:33Z</time>
</trkpt>
<trkpt lat="43.903613" lon="5.510906">
<ele>549.00000</ele>
<time>2010-10-31T23:37:44Z</time>
</trkpt>
<trkpt lat="43.903504" lon="5.510671">
<ele>549.00000</ele>
<time>2010-10-31T23:37:52Z</time>
</trkpt>
<trkpt lat="43.903403" lon="5.510371">
<ele>548.00000</ele>
<time>2010-10-31T23:38:01Z</time>
</trkpt>
<trkpt lat="43.903373" lon="5.510118">
<ele>548.00000</ele>
<time>2010-10-31T23:38:09Z</time>
</trkpt>
<trkpt lat="43.903326" lon="5.509797">
<ele>548.00000</ele>
<time>2010-10-31T23:38:18Z</time>
</trkpt>
<trkpt lat="43.903290" lon="5.509565">
<ele>547.00000</ele>
<time>2010-10-31T23:38:25Z</time>
</trkpt>
<trkpt lat="43.903264" lon="5.509364">
<ele>547.00000</ele>
<time>2010-10-31T23:38:31Z</time>
</trkpt>
<trkpt lat="43.903213" lon="5.509060">
<ele>547.00000</ele>
<time>2010-10-31T23:38:40Z</time>
</trkpt>
<trkpt lat="43.903221" lon="5.508805">
<ele>547.00000</ele>
<time>2010-10-31T23:38:47Z</time>
</trkpt>
<trkpt lat="43.903251" lon="5.508457">
<ele>549.00000</ele>
<time>2010-10-31T23:38:57Z</time>
</trkpt>
<trkpt lat="43.903209" lon="5.508099">
<ele>549.00000</ele>
<time>2010-10-31T23:39:08Z</time>
</trkpt>
<trkpt lat="43.903232" lon="5.507837">
<ele>555.00000</ele>
<time>2010-10-31T23:39:15Z</time>
</trkpt>
<trkpt lat="43.903276" lon="5.507531">
<ele>555.00000</ele>
<time>2010-10-31T23:39:24Z</time>
</trkpt>
<trkpt lat="43.903355" lon="5.507281">
<ele>555.00000</ele>
<time>2010-10-31T23:39:32Z</time>
</trkpt>
<trkpt lat="43.903533" lon="5.507041">
<ele>560.00000</ele>
<time>2010-10-31T23:39:42Z</time>
</trkpt>
<trkpt lat="43.903674" lon="5.506831">
<ele>560.00000</ele>
<time>2010-10-31T23:39:51Z</time>
</trkpt>
<trkpt lat="43.903801" lon="5.506602">
<ele>553.00000</ele>
<time>2010-10-31T23:39:59Z</time>
</trkpt>
<trkpt lat="43.903948" lon="5.506274">
<ele>553.00000</ele>
<time>2010-10-31T23:40:10Z</time>
</trkpt>
<trkpt lat="43.904020" lon="5.505983">
<ele>558.00000</ele>
<time>2010-10-31T23:40:19Z</time>
</trkpt>
<trkpt lat="43.904026" lon="5.505673">
<ele>558.00000</ele>
<time>2010-10-31T23:40:28Z</time>
</trkpt>
<trkpt lat="43.903997" lon="5.505316">
<ele>560.00000</ele>
<time>2010-10-31T23:40:38Z</time>
</trkpt>
<trkpt lat="43.904015" lon="5.504939">
<ele>560.00000</ele>
<time>2010-10-31T23:40:49Z</time>
</trkpt>
<trkpt lat="43.904082" lon="5.504625">
<ele>560.00000</ele>
<time>2010-10-31T23:40:59Z</time>
</trkpt>
<trkpt lat="43.904159" lon="5.504253">
<ele>563.00000</ele>
<time>2010-10-31T23:41:10Z</time>
</trkpt>
<trkpt lat="43.904203" lon="5.503971">
<ele>563.00000</ele>
<time>2010-10-31T23:41:18Z</time>
</trkpt>
<trkpt lat="43.904248" lon="5.503591">
<ele>566.00000</ele>
<time>2010-10-31T23:41:29Z</time>
</trkpt>
<trkpt lat="43.904288" lon="5.503209">
<ele>566.00000</ele>
<time>2010-10-31T23:41:40Z</time>
</trkpt>
<trkpt lat="43.904332" lon="5.502690">
<ele>569.00000</ele>
<time>2010-10-31T23:41:55Z</time>
</trkpt>
<trkpt lat="43.904393" lon="5.502362">
<ele>569.00000</ele>
<time>2010-10-31T23:42:05Z</time>
</trkpt>
<trkpt lat="43.904359" lon="5.502080">
<ele>571.00000</ele>
<time>2010-10-31T23:42:13Z</time>
</trkpt>
<trkpt lat="43.904267" lon="5.501725">
<ele>571.00000</ele>
<time>2010-10-31T23:42:24Z</time>
</trkpt>
<trkpt lat="43.904195" lon="5.501394">
<ele>571.00000</ele>
<time>2010-10-31T23:42:34Z</time>
</trkpt>
<trkpt lat="43.904140" lon="5.500927">
<ele>569.00000</ele>
<time>2010-10-31T23:42:48Z</time>
</trkpt>
<trkpt lat="43.904038" lon="5.500491">
<ele>569.00000</ele>
<time>2010-10-31T23:43:01Z</time>
</trkpt>
<trkpt lat="43.904008" lon="5.500063">
<ele>566.00000</ele>
<time>2010-10-31T23:43:13Z</time>
</trkpt>
<trkpt lat="43.903943" lon="5.499500">
<ele>566.00000</ele>
<time>2010-10-31T23:43:30Z</time>
</trkpt>
<trkpt lat="43.903921" lon="5.498962">
<ele>566.00000</ele>
<time>2010-10-31T23:43:45Z</time>
</trkpt>
<trkpt lat="43.903930" lon="5.498556">
<ele>564.00000</ele>
<time>2010-10-31T23:43:57Z</time>
</trkpt>
<trkpt lat="43.903948" lon="5.498119">
<ele>564.00000</ele>
<time>2010-10-31T23:44:10Z</time>
</trkpt>
<trkpt lat="43.903913" lon="5.497697">
<ele>559.00000</ele>
<time>2010-10-31T23:44:22Z</time>
</trkpt>
<trkpt lat="43.903882" lon="5.497546">
<ele>559.00000</ele>
<time>2010-10-31T23:44:27Z</time>
</trkpt>
<trkpt lat="43.903853" lon="5.497391">
<ele>559.00000</ele>
<time>2010-10-31T23:44:31Z</time>
</trkpt>
<trkpt lat="43.903847" lon="5.497065">
<ele>554.00000</ele>
<time>2010-10-31T23:44:41Z</time>
</trkpt>
<trkpt lat="43.903832" lon="5.496822">
<ele>554.00000</ele>
<time>2010-10-31T23:44:48Z</time>
</trkpt>
<trkpt lat="43.903922" lon="5.496861">
<ele>554.00000</ele>
<time>2010-10-31T23:44:51Z</time>
</trkpt>
<trkpt lat="43.904096" lon="5.497003">
<ele>554.00000</ele>
<time>2010-10-31T23:45:00Z</time>
</trkpt>
<trkpt lat="43.904253" lon="5.497092">
<ele>559.00000</ele>
<time>2010-10-31T23:45:06Z</time>
</trkpt>
<trkpt lat="43.904495" lon="5.497287">
<ele>559.00000</ele>
<time>2010-10-31T23:45:18Z</time>
</trkpt>
<trkpt lat="43.904694" lon="5.497398">
<ele>546.00000</ele>
<time>2010-10-31T23:45:26Z</time>
</trkpt>
<trkpt lat="43.904870" lon="5.497379">
<ele>546.00000</ele>
<time>2010-10-31T23:45:33Z</time>
</trkpt>
<trkpt lat="43.905009" lon="5.497377">
<ele>546.00000</ele>
<time>2010-10-31T23:45:39Z</time>
</trkpt>
<trkpt lat="43.905055" lon="5.497397">
<ele>546.00000</ele>
<time>2010-10-31T23:45:41Z</time>
</trkpt>
<trkpt lat="43.905205" lon="5.497472">
<ele>546.00000</ele>
<time>2010-10-31T23:45:47Z</time>
</trkpt>
<trkpt lat="43.905385" lon="5.497528">
<ele>546.00000</ele>
<time>2010-10-31T23:45:54Z</time>
</trkpt>
<trkpt lat="43.905421" lon="5.497500">
<ele>533.00000</ele>
<time>2010-10-31T23:45:56Z</time>
</trkpt>
<trkpt lat="43.905577" lon="5.497295">
<ele>533.00000</ele>
<time>2010-10-31T23:46:05Z</time>
</trkpt>
<trkpt lat="43.905607" lon="5.497242">
<ele>533.00000</ele>
<time>2010-10-31T23:46:07Z</time>
</trkpt>
<trkpt lat="43.905699" lon="5.497137">
<ele>533.00000</ele>
<time>2010-10-31T23:46:11Z</time>
</trkpt>
<trkpt lat="43.905786" lon="5.496982">
<ele>548.00000</ele>
<time>2010-10-31T23:46:17Z</time>
</trkpt>
<trkpt lat="43.905847" lon="5.496902">
<ele>548.00000</ele>
<time>2010-10-31T23:46:20Z</time>
</trkpt>
<trkpt lat="43.905922" lon="5.496831">
<ele>548.00000</ele>
<time>2010-10-31T23:46:24Z</time>
</trkpt>
<trkpt lat="43.906031" lon="5.496701">
<ele>548.00000</ele>
<time>2010-10-31T23:46:30Z</time>
</trkpt>
<trkpt lat="43.906121" lon="5.496593">
<ele>548.00000</ele>
<time>2010-10-31T23:46:35Z</time>
</trkpt>
<trkpt lat="43.906223" lon="5.496368">
<ele>548.00000</ele>
<time>2010-10-31T23:46:42Z</time>
</trkpt>
<trkpt lat="43.906341" lon="5.496124">
<ele>541.00000</ele>
<time>2010-10-31T23:46:51Z</time>
</trkpt>
<trkpt lat="43.906413" lon="5.495982">
<ele>541.00000</ele>
<time>2010-10-31T23:46:56Z</time>
</trkpt>
<trkpt lat="43.906429" lon="5.495969">
<ele>541.00000</ele>
<time>2010-10-31T23:46:56Z</time>
</trkpt>
<trkpt lat="43.906481" lon="5.495851">
<ele>541.00000</ele>
<time>2010-10-31T23:47:00Z</time>
</trkpt>
<trkpt lat="43.906516" lon="5.495656">
<ele>541.00000</ele>
<time>2010-10-31T23:47:06Z</time>
</trkpt>
<trkpt lat="43.906521" lon="5.495615">
<ele>541.00000</ele>
<time>2010-10-31T23:47:07Z</time>
</trkpt>
<trkpt lat="43.906650" lon="5.495414">
<ele>545.00000</ele>
<time>2010-10-31T23:47:15Z</time>
</trkpt>
<trkpt lat="43.906708" lon="5.495231">
<ele>545.00000</ele>
<time>2010-10-31T23:47:21Z</time>
</trkpt>
<trkpt lat="43.906716" lon="5.495094">
<ele>545.00000</ele>
<time>2010-10-31T23:47:25Z</time>
</trkpt>
<trkpt lat="43.906707" lon="5.494845">
<ele>545.00000</ele>
<time>2010-10-31T23:47:32Z</time>
</trkpt>
<trkpt lat="43.906658" lon="5.494636">
<ele>545.00000</ele>
<time>2010-10-31T23:47:38Z</time>
</trkpt>
<trkpt lat="43.906626" lon="5.494553">
<ele>540.00000</ele>
<time>2010-10-31T23:47:41Z</time>
</trkpt>
<trkpt lat="43.906574" lon="5.494464">
<ele>540.00000</ele>
<time>2010-10-31T23:47:44Z</time>
</trkpt>
<trkpt lat="43.906412" lon="5.494122">
<ele>540.00000</ele>
<time>2010-10-31T23:47:56Z</time>
</trkpt>
<trkpt lat="43.906369" lon="5.493873">
<ele>540.00000</ele>
<time>2010-10-31T23:48:04Z</time>
</trkpt>
<trkpt lat="43.906344" lon="5.493821">
<ele>540.00000</ele>
<time>2010-10-31T23:48:05Z</time>
</trkpt>
<trkpt lat="43.906168" lon="5.493394">
<ele>543.00000</ele>
<time>2010-10-31T23:48:20Z</time>
</trkpt>
<trkpt lat="43.906116" lon="5.493273">
<ele>543.00000</ele>
<time>2010-10-31T23:48:24Z</time>
</trkpt>
<trkpt lat="43.905984" lon="5.493066">
<ele>543.00000</ele>
<time>2010-10-31T23:48:32Z</time>
</trkpt>
<trkpt lat="43.905912" lon="5.492797">
<ele>535.00000</ele>
<time>2010-10-31T23:48:40Z</time>
</trkpt>
<trkpt lat="43.905874" lon="5.492664">
<ele>535.00000</ele>
<time>2010-10-31T23:48:44Z</time>
</trkpt>
<trkpt lat="43.905790" lon="5.492251">
<ele>535.00000</ele>
<time>2010-10-31T23:48:56Z</time>
</trkpt>
<trkpt lat="43.905752" lon="5.492023">
<ele>532.00000</ele>
<time>2010-10-31T23:49:03Z</time>
</trkpt>
<trkpt lat="43.905732" lon="5.491879">
<ele>532.00000</ele>
<time>2010-10-31T23:49:07Z</time>
</trkpt>
<trkpt lat="43.905685" lon="5.491641">
<ele>532.00000</ele>
<time>2010-10-31T23:49:15Z</time>
</trkpt>
<trkpt lat="43.905696" lon="5.491474">
<ele>532.00000</ele>
<time>2010-10-31T23:49:19Z</time>
</trkpt>
<trkpt lat="43.905688" lon="5.491435">
<ele>532.00000</ele>
<time>2010-10-31T23:49:21Z</time>
</trkpt>
<trkpt lat="43.905660" lon="5.491264">
<ele>532.00000</ele>
<time>2010-10-31T23:49:26Z</time>
</trkpt>
<trkpt lat="43.905697" lon="5.491087">
<ele>532.00000</ele>
<time>2010-10-31T23:49:31Z</time>
</trkpt>
<trkpt lat="43.905716" lon="5.490907">
<ele>532.00000</ele>
<time>2010-10-31T23:49:36Z</time>
</trkpt>
<trkpt lat="43.905813" lon="5.490808">
<ele>532.00000</ele>
<time>2010-10-31T23:49:41Z</time>
</trkpt>
<trkpt lat="43.905922" lon="5.490757">
<ele>532.00000</ele>
<time>2010-10-31T23:49:46Z</time>
</trkpt>
<trkpt lat="43.906140" lon="5.490574">
<ele>532.00000</ele>
<time>2010-10-31T23:49:56Z</time>
</trkpt>
<trkpt lat="43.906173" lon="5.490449">
<ele>532.00000</ele>
<time>2010-10-31T23:50:00Z</time>
</trkpt>
<trkpt lat="43.906189" lon="5.490331">
<ele>531.00000</ele>
<time>2010-10-31T23:50:03Z</time>
</trkpt>
<trkpt lat="43.906205" lon="5.490319">
<ele>531.00000</ele>
<time>2010-10-31T23:50:04Z</time>
</trkpt>
<trkpt lat="43.906196" lon="5.490165">
<ele>531.00000</ele>
<time>2010-10-31T23:50:08Z</time>
</trkpt>
<trkpt lat="43.906136" lon="5.489884">
<ele>531.00000</ele>
<time>2010-10-31T23:50:17Z</time>
</trkpt>
<trkpt lat="43.906019" lon="5.489592">
<ele>531.00000</ele>
<time>2010-10-31T23:50:26Z</time>
</trkpt>
<trkpt lat="43.905868" lon="5.489276">
<ele>525.00000</ele>
<time>2010-10-31T23:50:37Z</time>
</trkpt>
<trkpt lat="43.905639" lon="5.488824">
<ele>525.00000</ele>
<time>2010-10-31T23:50:53Z</time>
</trkpt>
<trkpt lat="43.905524" lon="5.488531">
<ele>513.00000</ele>
<time>2010-10-31T23:51:03Z</time>
</trkpt>
<trkpt lat="43.905411" lon="5.488011">
<ele>524.00000</ele>
<time>2010-10-31T23:51:19Z</time>
</trkpt>
<trkpt lat="43.905300" lon="5.487775">
<ele>519.00000</ele>
<time>2010-10-31T23:51:27Z</time>
</trkpt>
<trkpt lat="43.905054" lon="5.487410">
<ele>519.00000</ele>
<time>2010-10-31T23:51:41Z</time>
</trkpt>
<trkpt lat="43.904834" lon="5.487080">
<ele>505.00000</ele>
<time>2010-10-31T23:51:54Z</time>
</trkpt>
<trkpt lat="43.904476" lon="5.486359">
<ele>518.00000</ele>
<time>2010-10-31T23:52:19Z</time>
</trkpt>
<trkpt lat="43.904327" lon="5.485855">
<ele>515.00000</ele>
<time>2010-10-31T23:52:35Z</time>
</trkpt>
<trkpt lat="43.904260" lon="5.485367">
<ele>512.00000</ele>
<time>2010-10-31T23:52:49Z</time>
</trkpt>
<trkpt lat="43.904221" lon="5.484928">
<ele>512.00000</ele>
<time>2010-10-31T23:53:02Z</time>
</trkpt>
<trkpt lat="43.904213" lon="5.484794">
<ele>512.00000</ele>
<time>2010-10-31T23:53:06Z</time>
</trkpt>
<trkpt lat="43.904148" lon="5.484493">
<ele>505.00000</ele>
<time>2010-10-31T23:53:15Z</time>
</trkpt>
<trkpt lat="43.903990" lon="5.484070">
<ele>505.00000</ele>
<time>2010-10-31T23:53:29Z</time>
</trkpt>
<trkpt lat="43.903895" lon="5.483808">
<ele>505.00000</ele>
<time>2010-10-31T23:53:37Z</time>
</trkpt>
<trkpt lat="43.903761" lon="5.483304">
<ele>500.00000</ele>
<time>2010-10-31T23:53:53Z</time>
</trkpt>
<trkpt lat="43.903725" lon="5.483113">
<ele>511.00000</ele>
<time>2010-10-31T23:53:58Z</time>
</trkpt>
<trkpt lat="43.903801" lon="5.482861">
<ele>492.00000</ele>
<time>2010-10-31T23:54:06Z</time>
</trkpt>
<trkpt lat="43.903782" lon="5.482700">
<ele>492.00000</ele>
<time>2010-10-31T23:54:11Z</time>
</trkpt>
<trkpt lat="43.903747" lon="5.482645">
<ele>510.00000</ele>
<time>2010-10-31T23:54:13Z</time>
</trkpt>
<trkpt lat="43.903617" lon="5.482460">
<ele>510.00000</ele>
<time>2010-10-31T23:54:21Z</time>
</trkpt>
<trkpt lat="43.903522" lon="5.482335">
<ele>510.00000</ele>
<time>2010-10-31T23:54:26Z</time>
</trkpt>
<trkpt lat="43.903381" lon="5.482177">
<ele>510.00000</ele>
<time>2010-10-31T23:54:33Z</time>
</trkpt>
<trkpt lat="43.903345" lon="5.482158">
<ele>510.00000</ele>
<time>2010-10-31T23:54:35Z</time>
</trkpt>
<trkpt lat="43.903203" lon="5.481944">
<ele>504.00000</ele>
<time>2010-10-31T23:54:43Z</time>
</trkpt>
<trkpt lat="43.903133" lon="5.481866">
<ele>504.00000</ele>
<time>2010-10-31T23:54:47Z</time>
</trkpt>
<trkpt lat="43.903040" lon="5.481677">
<ele>504.00000</ele>
<time>2010-10-31T23:54:53Z</time>
</trkpt>
<trkpt lat="43.902978" lon="5.481557">
<ele>504.00000</ele>
<time>2010-10-31T23:54:57Z</time>
</trkpt>
<trkpt lat="43.902921" lon="5.481397">
<ele>504.00000</ele>
<time>2010-10-31T23:55:03Z</time>
</trkpt>
<trkpt lat="43.902848" lon="5.481218">
<ele>514.00000</ele>
<time>2010-10-31T23:55:09Z</time>
</trkpt>
<trkpt lat="43.902796" lon="5.481051">
<ele>514.00000</ele>
<time>2010-10-31T23:55:14Z</time>
</trkpt>
<trkpt lat="43.902762" lon="5.480881">
<ele>514.00000</ele>
<time>2010-10-31T23:55:19Z</time>
</trkpt>
<trkpt lat="43.902716" lon="5.480807">
<ele>514.00000</ele>
<time>2010-10-31T23:55:22Z</time>
</trkpt>
<trkpt lat="43.902712" lon="5.480804">
<ele>514.00000</ele>
<time>2010-10-31T23:55:22Z</time>
</trkpt>
<trkpt lat="43.902709" lon="5.480783">
<ele>514.00000</ele>
<time>2010-10-31T23:55:23Z</time>
</trkpt>
<trkpt lat="43.902691" lon="5.480675">
<ele>514.00000</ele>
<time>2010-10-31T23:55:26Z</time>
</trkpt>
<trkpt lat="43.902683" lon="5.480654">
<ele>514.00000</ele>
<time>2010-10-31T23:55:26Z</time>
</trkpt>
<trkpt lat="43.902642" lon="5.480494">
<ele>514.00000</ele>
<time>2010-10-31T23:55:31Z</time>
</trkpt>
<trkpt lat="43.902621" lon="5.480428">
<ele>514.00000</ele>
<time>2010-10-31T23:55:33Z</time>
</trkpt>
<trkpt lat="43.902625" lon="5.480414">
<ele>522.00000</ele>
<time>2010-10-31T23:55:34Z</time>
</trkpt>
<trkpt lat="43.902622" lon="5.480338">
<ele>522.00000</ele>
<time>2010-10-31T23:55:36Z</time>
</trkpt>
<trkpt lat="43.902616" lon="5.480301">
<ele>522.00000</ele>
<time>2010-10-31T23:55:37Z</time>
</trkpt>
<trkpt lat="43.902623" lon="5.480285">
<ele>522.00000</ele>
<time>2010-10-31T23:55:38Z</time>
</trkpt>
<trkpt lat="43.902614" lon="5.480217">
<ele>522.00000</ele>
<time>2010-10-31T23:55:40Z</time>
</trkpt>
<trkpt lat="43.902611" lon="5.480199">
<ele>522.00000</ele>
<time>2010-10-31T23:55:40Z</time>
</trkpt>
<trkpt lat="43.902611" lon="5.480192">
<ele>522.00000</ele>
<time>2010-10-31T23:55:40Z</time>
</trkpt>
<trkpt lat="43.902613" lon="5.480121">
<ele>522.00000</ele>
<time>2010-10-31T23:55:42Z</time>
</trkpt>
<trkpt lat="43.902613" lon="5.480085">
<ele>522.00000</ele>
<time>2010-10-31T23:55:43Z</time>
</trkpt>
<trkpt lat="43.902615" lon="5.480074">
<ele>522.00000</ele>
<time>2010-10-31T23:55:44Z</time>
</trkpt>
<trkpt lat="43.902601" lon="5.479970">
<ele>522.00000</ele>
<time>2010-10-31T23:55:47Z</time>
</trkpt>
<trkpt lat="43.902599" lon="5.479919">
<ele>522.00000</ele>
<time>2010-10-31T23:55:48Z</time>
</trkpt>
<trkpt lat="43.902574" lon="5.479832">
<ele>522.00000</ele>
<time>2010-10-31T23:55:51Z</time>
</trkpt>
<trkpt lat="43.902535" lon="5.479584">
<ele>522.00000</ele>
<time>2010-10-31T23:55:58Z</time>
</trkpt>
<trkpt lat="43.902572" lon="5.479526">
<ele>529.00000</ele>
<time>2010-10-31T23:56:01Z</time>
</trkpt>
<trkpt lat="43.902666" lon="5.479426">
<ele>529.00000</ele>
<time>2010-10-31T23:56:05Z</time>
</trkpt>
<trkpt lat="43.902701" lon="5.479321">
<ele>529.00000</ele>
<time>2010-10-31T23:56:09Z</time>
</trkpt>
<trkpt lat="43.902692" lon="5.479213">
<ele>529.00000</ele>
<time>2010-10-31T23:56:12Z</time>
</trkpt>
<trkpt lat="43.902682" lon="5.479178">
<ele>529.00000</ele>
<time>2010-10-31T23:56:13Z</time>
</trkpt>
<trkpt lat="43.902727" lon="5.478975">
<ele>529.00000</ele>
<time>2010-10-31T23:56:19Z</time>
</trkpt>
<trkpt lat="43.902739" lon="5.478762">
<ele>529.00000</ele>
<time>2010-10-31T23:56:25Z</time>
</trkpt>
<trkpt lat="43.902736" lon="5.478503">
<ele>534.00000</ele>
<time>2010-10-31T23:56:33Z</time>
</trkpt>
<trkpt lat="43.902739" lon="5.478201">
<ele>534.00000</ele>
<time>2010-10-31T23:56:41Z</time>
</trkpt>
<trkpt lat="43.902745" lon="5.478090">
<ele>534.00000</ele>
<time>2010-10-31T23:56:45Z</time>
</trkpt>
<trkpt lat="43.902708" lon="5.477933">
<ele>534.00000</ele>
<time>2010-10-31T23:56:49Z</time>
</trkpt>
<trkpt lat="43.902687" lon="5.477816">
<ele>535.00000</ele>
<time>2010-10-31T23:56:53Z</time>
</trkpt>
<trkpt lat="43.902680" lon="5.477645">
<ele>535.00000</ele>
<time>2010-10-31T23:56:58Z</time>
</trkpt>
<trkpt lat="43.902693" lon="5.477605">
<ele>535.00000</ele>
<time>2010-10-31T23:56:59Z</time>
</trkpt>
<trkpt lat="43.902725" lon="5.477532">
<ele>535.00000</ele>
<time>2010-10-31T23:57:01Z</time>
</trkpt>
<trkpt lat="43.902743" lon="5.477319">
<ele>535.00000</ele>
<time>2010-10-31T23:57:08Z</time>
</trkpt>
<trkpt lat="43.902737" lon="5.477279">
<ele>535.00000</ele>
<time>2010-10-31T23:57:09Z</time>
</trkpt>
<trkpt lat="43.902738" lon="5.477064">
<ele>533.00000</ele>
<time>2010-10-31T23:57:15Z</time>
</trkpt>
<trkpt lat="43.902726" lon="5.477025">
<ele>533.00000</ele>
<time>2010-10-31T23:57:16Z</time>
</trkpt>
<trkpt lat="43.902641" lon="5.476889">
<ele>533.00000</ele>
<time>2010-10-31T23:57:21Z</time>
</trkpt>
<trkpt lat="43.902632" lon="5.476847">
<ele>533.00000</ele>
<time>2010-10-31T23:57:23Z</time>
</trkpt>
<trkpt lat="43.902622" lon="5.476731">
<ele>533.00000</ele>
<time>2010-10-31T23:57:26Z</time>
</trkpt>
<trkpt lat="43.902626" lon="5.476604">
<ele>533.00000</ele>
<time>2010-10-31T23:57:30Z</time>
</trkpt>
<trkpt lat="43.902578" lon="5.476211">
<ele>529.00000</ele>
<time>2010-10-31T23:57:41Z</time>
</trkpt>
<trkpt lat="43.902549" lon="5.476041">
<ele>529.00000</ele>
<time>2010-10-31T23:57:46Z</time>
</trkpt>
<trkpt lat="43.902457" lon="5.475601">
<ele>529.00000</ele>
<time>2010-10-31T23:57:59Z</time>
</trkpt>
<trkpt lat="43.902383" lon="5.475228">
<ele>529.00000</ele>
<time>2010-10-31T23:58:11Z</time>
</trkpt>
<trkpt lat="43.902372" lon="5.475069">
<ele>529.00000</ele>
<time>2010-10-31T23:58:15Z</time>
</trkpt>
<trkpt lat="43.902372" lon="5.474913">
<ele>529.00000</ele>
<time>2010-10-31T23:58:20Z</time>
</trkpt>
<trkpt lat="43.902356" lon="5.474696">
<ele>529.00000</ele>
<time>2010-10-31T23:58:26Z</time>
</trkpt>
<trkpt lat="43.902330" lon="5.474434">
<ele>526.00000</ele>
<time>2010-10-31T23:58:34Z</time>
</trkpt>
<trkpt lat="43.902299" lon="5.474237">
<ele>526.00000</ele>
<time>2010-10-31T23:58:39Z</time>
</trkpt>
<trkpt lat="43.902284" lon="5.473933">
<ele>526.00000</ele>
<time>2010-10-31T23:58:48Z</time>
</trkpt>
<trkpt lat="43.902285" lon="5.473707">
<ele>525.00000</ele>
<time>2010-10-31T23:58:55Z</time>
</trkpt>
<trkpt lat="43.902277" lon="5.473460">
<ele>525.00000</ele>
<time>2010-10-31T23:59:02Z</time>
</trkpt>
<trkpt lat="43.902232" lon="5.473249">
<ele>525.00000</ele>
<time>2010-10-31T23:59:08Z</time>
</trkpt>
<trkpt lat="43.902235" lon="5.473091">
<ele>525.00000</ele>
<time>2010-10-31T23:59:13Z</time>
</trkpt>
<trkpt lat="43.902152" lon="5.472945">
<ele>525.00000</ele>
<time>2010-10-31T23:59:18Z</time>
</trkpt>
<trkpt lat="43.902122" lon="5.472740">
<ele>521.00000</ele>
<time>2010-10-31T23:59:24Z</time>
</trkpt>
<trkpt lat="43.902081" lon="5.472455">
<ele>527.00000</ele>
<time>2010-10-31T23:59:33Z</time>
</trkpt>
<trkpt lat="43.902080" lon="5.472398">
<ele>527.00000</ele>
<time>2010-10-31T23:59:34Z</time>
</trkpt>
<trkpt lat="43.902195" lon="5.472267">
<ele>521.00000</ele>
<time>2010-10-31T23:59:40Z</time>
</trkpt>
<trkpt lat="43.902313" lon="5.472080">
<ele>513.00000</ele>
<time>2010-10-31T23:59:47Z</time>
</trkpt>
<trkpt lat="43.902412" lon="5.472003">
<ele>513.00000</ele>
<time>2010-10-31T23:59:52Z</time>
</trkpt>
<trkpt lat="43.902450" lon="5.471957">
<ele>513.00000</ele>
<time>2010-10-31T23:59:54Z</time>
</trkpt>
<trkpt lat="43.902562" lon="5.471773">
<ele>513.00000</ele>
<time>2010-11-01T00:00:01Z</time>
</trkpt>
<trkpt lat="43.902689" lon="5.471544">
<ele>513.00000</ele>
<time>2010-11-01T00:00:09Z</time>
</trkpt>
<trkpt lat="43.902775" lon="5.471134">
<ele>509.00000</ele>
<time>2010-11-01T00:00:22Z</time>
</trkpt>
<trkpt lat="43.902795" lon="5.471049">
<ele>509.00000</ele>
<time>2010-11-01T00:00:24Z</time>
</trkpt>
<trkpt lat="43.902821" lon="5.470689">
<ele>509.00000</ele>
<time>2010-11-01T00:00:35Z</time>
</trkpt>
<trkpt lat="43.902835" lon="5.470423">
<ele>509.00000</ele>
<time>2010-11-01T00:00:42Z</time>
</trkpt>
<trkpt lat="43.902854" lon="5.470099">
<ele>505.00000</ele>
<time>2010-11-01T00:00:52Z</time>
</trkpt>
<trkpt lat="43.902795" lon="5.469775">
<ele>505.00000</ele>
<time>2010-11-01T00:01:01Z</time>
</trkpt>
<trkpt lat="43.902743" lon="5.469625">
<ele>505.00000</ele>
<time>2010-11-01T00:01:06Z</time>
</trkpt>
<trkpt lat="43.902668" lon="5.469299">
<ele>503.00000</ele>
<time>2010-11-01T00:01:16Z</time>
</trkpt>
<trkpt lat="43.902706" lon="5.469084">
<ele>503.00000</ele>
<time>2010-11-01T00:01:22Z</time>
</trkpt>
<trkpt lat="43.902729" lon="5.468912">
<ele>503.00000</ele>
<time>2010-11-01T00:01:27Z</time>
</trkpt>
<trkpt lat="43.902731" lon="5.468609">
<ele>502.00000</ele>
<time>2010-11-01T00:01:36Z</time>
</trkpt>
<trkpt lat="43.902680" lon="5.468305">
<ele>502.00000</ele>
<time>2010-11-01T00:01:45Z</time>
</trkpt>
<trkpt lat="43.902621" lon="5.468041">
<ele>502.00000</ele>
<time>2010-11-01T00:01:53Z</time>
</trkpt>
<trkpt lat="43.902539" lon="5.467657">
<ele>499.00000</ele>
<time>2010-11-01T00:02:05Z</time>
</trkpt>
<trkpt lat="43.902494" lon="5.467443">
<ele>499.00000</ele>
<time>2010-11-01T00:02:11Z</time>
</trkpt>
<trkpt lat="43.902401" lon="5.467159">
<ele>499.00000</ele>
<time>2010-11-01T00:02:20Z</time>
</trkpt>
<trkpt lat="43.902407" lon="5.466990">
<ele>495.00000</ele>
<time>2010-11-01T00:02:25Z</time>
</trkpt>
<trkpt lat="43.902433" lon="5.466528">
<ele>495.00000</ele>
<time>2010-11-01T00:02:38Z</time>
</trkpt>
<trkpt lat="43.902485" lon="5.466320">
<ele>495.00000</ele>
<time>2010-11-01T00:02:45Z</time>
</trkpt>
<trkpt lat="43.902516" lon="5.466192">
<ele>485.00000</ele>
<time>2010-11-01T00:02:49Z</time>
</trkpt>
<trkpt lat="43.902479" lon="5.465952">
<ele>485.00000</ele>
<time>2010-11-01T00:02:56Z</time>
</trkpt>
<trkpt lat="43.902395" lon="5.465713">
<ele>485.00000</ele>
<time>2010-11-01T00:03:03Z</time>
</trkpt>
<trkpt lat="43.902253" lon="5.465601">
<ele>485.00000</ele>
<time>2010-11-01T00:03:10Z</time>
</trkpt>
<trkpt lat="43.902129" lon="5.465530">
<ele>485.00000</ele>
<time>2010-11-01T00:03:15Z</time>
</trkpt>
<trkpt lat="43.902029" lon="5.465268">
<ele>483.00000</ele>
<time>2010-11-01T00:03:24Z</time>
</trkpt>
<trkpt lat="43.901976" lon="5.465135">
<ele>483.00000</ele>
<time>2010-11-01T00:03:28Z</time>
</trkpt>
<trkpt lat="43.901883" lon="5.464894">
<ele>483.00000</ele>
<time>2010-11-01T00:03:36Z</time>
</trkpt>
<trkpt lat="43.901802" lon="5.464451">
<ele>477.00000</ele>
<time>2010-11-01T00:03:49Z</time>
</trkpt>
<trkpt lat="43.901748" lon="5.464243">
<ele>477.00000</ele>
<time>2010-11-01T00:03:56Z</time>
</trkpt>
<trkpt lat="43.901593" lon="5.463920">
<ele>477.00000</ele>
<time>2010-11-01T00:04:07Z</time>
</trkpt>
<trkpt lat="43.901556" lon="5.463695">
<ele>471.00000</ele>
<time>2010-11-01T00:04:13Z</time>
</trkpt>
<trkpt lat="43.901539" lon="5.463614">
<ele>471.00000</ele>
<time>2010-11-01T00:04:16Z</time>
</trkpt>
<trkpt lat="43.901498" lon="5.463456">
<ele>471.00000</ele>
<time>2010-11-01T00:04:21Z</time>
</trkpt>
<trkpt lat="43.901490" lon="5.463201">
<ele>471.00000</ele>
<time>2010-11-01T00:04:28Z</time>
</trkpt>
<trkpt lat="43.901521" lon="5.462941">
<ele>471.00000</ele>
<time>2010-11-01T00:04:36Z</time>
</trkpt>
<trkpt lat="43.901504" lon="5.462781">
<ele>458.00000</ele>
<time>2010-11-01T00:04:40Z</time>
</trkpt>
<trkpt lat="43.901487" lon="5.462743">
<ele>458.00000</ele>
<time>2010-11-01T00:04:42Z</time>
</trkpt>
<trkpt lat="43.901384" lon="5.462616">
<ele>458.00000</ele>
<time>2010-11-01T00:04:47Z</time>
</trkpt>
<trkpt lat="43.901180" lon="5.462420">
<ele>469.00000</ele>
<time>2010-11-01T00:04:57Z</time>
</trkpt>
<trkpt lat="43.901016" lon="5.462296">
<ele>469.00000</ele>
<time>2010-11-01T00:05:05Z</time>
</trkpt>
<trkpt lat="43.900833" lon="5.462061">
<ele>464.00000</ele>
<time>2010-11-01T00:05:15Z</time>
</trkpt>
<trkpt lat="43.900744" lon="5.461866">
<ele>464.00000</ele>
<time>2010-11-01T00:05:21Z</time>
</trkpt>
<trkpt lat="43.900713" lon="5.461639">
<ele>464.00000</ele>
<time>2010-11-01T00:05:28Z</time>
</trkpt>
<trkpt lat="43.900668" lon="5.461386">
<ele>464.00000</ele>
<time>2010-11-01T00:05:35Z</time>
</trkpt>
<trkpt lat="43.900511" lon="5.461232">
<ele>465.00000</ele>
<time>2010-11-01T00:05:43Z</time>
</trkpt>
<trkpt lat="43.900223" lon="5.461044">
<ele>463.00000</ele>
<time>2010-11-01T00:05:56Z</time>
</trkpt>
<trkpt lat="43.900165" lon="5.461007">
<ele>463.00000</ele>
<time>2010-11-01T00:05:58Z</time>
</trkpt>
<trkpt lat="43.900063" lon="5.460859">
<ele>463.00000</ele>
<time>2010-11-01T00:06:04Z</time>
</trkpt>
<trkpt lat="43.900053" lon="5.460772">
<ele>463.00000</ele>
<time>2010-11-01T00:06:07Z</time>
</trkpt>
<trkpt lat="43.900067" lon="5.460734">
<ele>463.00000</ele>
<time>2010-11-01T00:06:08Z</time>
</trkpt>
<trkpt lat="43.900061" lon="5.460637">
<ele>463.00000</ele>
<time>2010-11-01T00:06:11Z</time>
</trkpt>
<trkpt lat="43.900042" lon="5.460551">
<ele>463.00000</ele>
<time>2010-11-01T00:06:13Z</time>
</trkpt>
<trkpt lat="43.900038" lon="5.460525">
<ele>463.00000</ele>
<time>2010-11-01T00:06:14Z</time>
</trkpt>
<trkpt lat="43.900035" lon="5.460469">
<ele>463.00000</ele>
<time>2010-11-01T00:06:16Z</time>
</trkpt>
<trkpt lat="43.900030" lon="5.460441">
<ele>463.00000</ele>
<time>2010-11-01T00:06:17Z</time>
</trkpt>
<trkpt lat="43.900017" lon="5.460267">
<ele>465.00000</ele>
<time>2010-11-01T00:06:22Z</time>
</trkpt>
<trkpt lat="43.899988" lon="5.460009">
<ele>465.00000</ele>
<time>2010-11-01T00:06:29Z</time>
</trkpt>
<trkpt lat="43.899967" lon="5.459870">
<ele>465.00000</ele>
<time>2010-11-01T00:06:33Z</time>
</trkpt>
<trkpt lat="43.899923" lon="5.459726">
<ele>465.00000</ele>
<time>2010-11-01T00:06:38Z</time>
</trkpt>
<trkpt lat="43.899849" lon="5.459515">
<ele>470.00000</ele>
<time>2010-11-01T00:06:45Z</time>
</trkpt>
<trkpt lat="43.899788" lon="5.459319">
<ele>470.00000</ele>
<time>2010-11-01T00:06:51Z</time>
</trkpt>
<trkpt lat="43.899768" lon="5.459079">
<ele>470.00000</ele>
<time>2010-11-01T00:06:58Z</time>
</trkpt>
<trkpt lat="43.899743" lon="5.458898">
<ele>470.00000</ele>
<time>2010-11-01T00:07:03Z</time>
</trkpt>
<trkpt lat="43.899689" lon="5.458603">
<ele>472.00000</ele>
<time>2010-11-01T00:07:12Z</time>
</trkpt>
<trkpt lat="43.899693" lon="5.458305">
<ele>472.00000</ele>
<time>2010-11-01T00:07:20Z</time>
</trkpt>
<trkpt lat="43.899676" lon="5.458077">
<ele>472.00000</ele>
<time>2010-11-01T00:07:27Z</time>
</trkpt>
<trkpt lat="43.899654" lon="5.457794">
<ele>476.00000</ele>
<time>2010-11-01T00:07:35Z</time>
</trkpt>
<trkpt lat="43.899620" lon="5.457657">
<ele>476.00000</ele>
<time>2010-11-01T00:07:39Z</time>
</trkpt>
<trkpt lat="43.899605" lon="5.457466">
<ele>476.00000</ele>
<time>2010-11-01T00:07:45Z</time>
</trkpt>
<trkpt lat="43.899587" lon="5.457189">
<ele>476.00000</ele>
<time>2010-11-01T00:07:53Z</time>
</trkpt>
<trkpt lat="43.899575" lon="5.457016">
<ele>473.00000</ele>
<time>2010-11-01T00:07:58Z</time>
</trkpt>
<trkpt lat="43.899584" lon="5.456842">
<ele>479.00000</ele>
<time>2010-11-01T00:08:03Z</time>
</trkpt>
<trkpt lat="43.899571" lon="5.456614">
<ele>473.00000</ele>
<time>2010-11-01T00:08:10Z</time>
</trkpt>
<trkpt lat="43.899547" lon="5.456375">
<ele>473.00000</ele>
<time>2010-11-01T00:08:17Z</time>
</trkpt>
<trkpt lat="43.899548" lon="5.456206">
<ele>475.00000</ele>
<time>2010-11-01T00:08:21Z</time>
</trkpt>
<trkpt lat="43.899533" lon="5.456022">
<ele>475.00000</ele>
<time>2010-11-01T00:08:27Z</time>
</trkpt>
<trkpt lat="43.899521" lon="5.455869">
<ele>475.00000</ele>
<time>2010-11-01T00:08:31Z</time>
</trkpt>
<trkpt lat="43.899495" lon="5.455623">
<ele>475.00000</ele>
<time>2010-11-01T00:08:38Z</time>
</trkpt>
<trkpt lat="43.899485" lon="5.455450">
<ele>475.00000</ele>
<time>2010-11-01T00:08:43Z</time>
</trkpt>
<trkpt lat="43.899439" lon="5.455245">
<ele>477.00000</ele>
<time>2010-11-01T00:08:50Z</time>
</trkpt>
<trkpt lat="43.899423" lon="5.455085">
<ele>477.00000</ele>
<time>2010-11-01T00:08:54Z</time>
</trkpt>
<trkpt lat="43.899421" lon="5.454955">
<ele>477.00000</ele>
<time>2010-11-01T00:08:58Z</time>
</trkpt>
<trkpt lat="43.899423" lon="5.454818">
<ele>477.00000</ele>
<time>2010-11-01T00:09:02Z</time>
</trkpt>
<trkpt lat="43.899415" lon="5.454612">
<ele>477.00000</ele>
<time>2010-11-01T00:09:08Z</time>
</trkpt>
<trkpt lat="43.899400" lon="5.454495">
<ele>487.00000</ele>
<time>2010-11-01T00:09:11Z</time>
</trkpt>
<trkpt lat="43.899400" lon="5.454494">
<ele>487.00000</ele>
<time>2010-11-01T00:09:11Z</time>
</trkpt>
<trkpt lat="43.899398" lon="5.454480">
<ele>487.00000</ele>
<time>2010-11-01T00:09:12Z</time>
</trkpt>
<trkpt lat="43.899392" lon="5.454439">
<ele>487.00000</ele>
<time>2010-11-01T00:09:13Z</time>
</trkpt>
<trkpt lat="43.899389" lon="5.454401">
<ele>487.00000</ele>
<time>2010-11-01T00:09:14Z</time>
</trkpt>
<trkpt lat="43.899344" lon="5.454362">
<ele>487.00000</ele>
<time>2010-11-01T00:09:16Z</time>
</trkpt>
<trkpt lat="43.899344" lon="5.454352">
<ele>487.00000</ele>
<time>2010-11-01T00:09:17Z</time>
</trkpt>
<trkpt lat="43.899347" lon="5.454344">
<ele>487.00000</ele>
<time>2010-11-01T00:09:17Z</time>
</trkpt>
<trkpt lat="43.899346" lon="5.454315">
<ele>487.00000</ele>
<time>2010-11-01T00:09:18Z</time>
</trkpt>
<trkpt lat="43.899347" lon="5.454314">
<ele>487.00000</ele>
<time>2010-11-01T00:09:18Z</time>
</trkpt>
<trkpt lat="43.899346" lon="5.454310">
<ele>487.00000</ele>
<time>2010-11-01T00:09:18Z</time>
</trkpt>
<trkpt lat="43.899343" lon="5.454288">
<ele>487.00000</ele>
<time>2010-11-01T00:09:18Z</time>
</trkpt>
<trkpt lat="43.899342" lon="5.454282">
<ele>487.00000</ele>
<time>2010-11-01T00:09:19Z</time>
</trkpt>
<trkpt lat="43.899341" lon="5.454273">
<ele>487.00000</ele>
<time>2010-11-01T00:09:19Z</time>
</trkpt>
<trkpt lat="43.899342" lon="5.454239">
<ele>487.00000</ele>
<time>2010-11-01T00:09:20Z</time>
</trkpt>
<trkpt lat="43.899344" lon="5.454223">
<ele>487.00000</ele>
<time>2010-11-01T00:09:20Z</time>
</trkpt>
<trkpt lat="43.899341" lon="5.454183">
<ele>487.00000</ele>
<time>2010-11-01T00:09:22Z</time>
</trkpt>
<trkpt lat="43.899321" lon="5.454099">
<ele>487.00000</ele>
<time>2010-11-01T00:09:24Z</time>
</trkpt>
<trkpt lat="43.899318" lon="5.454094">
<ele>487.00000</ele>
<time>2010-11-01T00:09:24Z</time>
</trkpt>
<trkpt lat="43.899320" lon="5.454089">
<ele>487.00000</ele>
<time>2010-11-01T00:09:24Z</time>
</trkpt>
<trkpt lat="43.899311" lon="5.454002">
<ele>487.00000</ele>
<time>2010-11-01T00:09:27Z</time>
</trkpt>
<trkpt lat="43.899311" lon="5.453892">
<ele>487.00000</ele>
<time>2010-11-01T00:09:30Z</time>
</trkpt>
<trkpt lat="43.899319" lon="5.453748">
<ele>493.00000</ele>
<time>2010-11-01T00:09:34Z</time>
</trkpt>
<trkpt lat="43.899319" lon="5.453741">
<ele>493.00000</ele>
<time>2010-11-01T00:09:34Z</time>
</trkpt>
<trkpt lat="43.899320" lon="5.453737">
<ele>493.00000</ele>
<time>2010-11-01T00:09:35Z</time>
</trkpt>
<trkpt lat="43.899323" lon="5.453716">
<ele>493.00000</ele>
<time>2010-11-01T00:09:35Z</time>
</trkpt>
<trkpt lat="43.899324" lon="5.453614">
<ele>493.00000</ele>
<time>2010-11-01T00:09:38Z</time>
</trkpt>
<trkpt lat="43.899301" lon="5.453458">
<ele>493.00000</ele>
<time>2010-11-01T00:09:43Z</time>
</trkpt>
<trkpt lat="43.899275" lon="5.453190">
<ele>493.00000</ele>
<time>2010-11-01T00:09:51Z</time>
</trkpt>
<trkpt lat="43.899230" lon="5.452869">
<ele>486.00000</ele>
<time>2010-11-01T00:10:00Z</time>
</trkpt>
<trkpt lat="43.899224" lon="5.452628">
<ele>486.00000</ele>
<time>2010-11-01T00:10:07Z</time>
</trkpt>
<trkpt lat="43.899224" lon="5.452586">
<ele>486.00000</ele>
<time>2010-11-01T00:10:08Z</time>
</trkpt>
<trkpt lat="43.899226" lon="5.452586">
<ele>486.00000</ele>
<time>2010-11-01T00:10:08Z</time>
</trkpt>
<trkpt lat="43.899289" lon="5.452422">
<ele>486.00000</ele>
<time>2010-11-01T00:10:14Z</time>
</trkpt>
<trkpt lat="43.899306" lon="5.452244">
<ele>486.00000</ele>
<time>2010-11-01T00:10:19Z</time>
</trkpt>
<trkpt lat="43.899294" lon="5.452194">
<ele>486.00000</ele>
<time>2010-11-01T00:10:20Z</time>
</trkpt>
<trkpt lat="43.899307" lon="5.451939">
<ele>474.00000</ele>
<time>2010-11-01T00:10:28Z</time>
</trkpt>
<trkpt lat="43.899287" lon="5.451751">
<ele>474.00000</ele>
<time>2010-11-01T00:10:33Z</time>
</trkpt>
<trkpt lat="43.899301" lon="5.451569">
<ele>474.00000</ele>
<time>2010-11-01T00:10:38Z</time>
</trkpt>
<trkpt lat="43.899353" lon="5.451117">
<ele>458.00000</ele>
<time>2010-11-01T00:10:52Z</time>
</trkpt>
<trkpt lat="43.899368" lon="5.451040">
<ele>458.00000</ele>
<time>2010-11-01T00:10:54Z</time>
</trkpt>
<trkpt lat="43.899411" lon="5.450836">
<ele>458.00000</ele>
<time>2010-11-01T00:11:00Z</time>
</trkpt>
<trkpt lat="43.899402" lon="5.450657">
<ele>458.00000</ele>
<time>2010-11-01T00:11:05Z</time>
</trkpt>
<trkpt lat="43.899405" lon="5.450330">
<ele>447.00000</ele>
<time>2010-11-01T00:11:15Z</time>
</trkpt>
<trkpt lat="43.899375" lon="5.450117">
<ele>447.00000</ele>
<time>2010-11-01T00:11:21Z</time>
</trkpt>
<trkpt lat="43.899327" lon="5.449929">
<ele>447.00000</ele>
<time>2010-11-01T00:11:27Z</time>
</trkpt>
<trkpt lat="43.899286" lon="5.449806">
<ele>447.00000</ele>
<time>2010-11-01T00:11:31Z</time>
</trkpt>
<trkpt lat="43.899271" lon="5.449620">
<ele>447.00000</ele>
<time>2010-11-01T00:11:36Z</time>
</trkpt>
<trkpt lat="43.899269" lon="5.449401">
<ele>432.00000</ele>
<time>2010-11-01T00:11:42Z</time>
</trkpt>
<trkpt lat="43.899321" lon="5.449152">
<ele>432.00000</ele>
<time>2010-11-01T00:11:50Z</time>
</trkpt>
<trkpt lat="43.899301" lon="5.449051">
<ele>432.00000</ele>
<time>2010-11-01T00:11:53Z</time>
</trkpt>
<trkpt lat="43.899244" lon="5.448811">
<ele>432.00000</ele>
<time>2010-11-01T00:12:00Z</time>
</trkpt>
<trkpt lat="43.899214" lon="5.448541">
<ele>418.00000</ele>
<time>2010-11-01T00:12:08Z</time>
</trkpt>
<trkpt lat="43.899194" lon="5.448414">
<ele>418.00000</ele>
<time>2010-11-01T00:12:12Z</time>
</trkpt>
<trkpt lat="43.899197" lon="5.448068">
<ele>418.00000</ele>
<time>2010-11-01T00:12:22Z</time>
</trkpt>
<trkpt lat="43.899209" lon="5.447803">
<ele>409.00000</ele>
<time>2010-11-01T00:12:29Z</time>
</trkpt>
<trkpt lat="43.899220" lon="5.447453">
<ele>409.00000</ele>
<time>2010-11-01T00:12:39Z</time>
</trkpt>
<trkpt lat="43.899200" lon="5.447271">
<ele>409.00000</ele>
<time>2010-11-01T00:12:45Z</time>
</trkpt>
<trkpt lat="43.899152" lon="5.447127">
<ele>409.00000</ele>
<time>2010-11-01T00:12:49Z</time>
</trkpt>
<trkpt lat="43.899138" lon="5.447128">
<ele>409.00000</ele>
<time>2010-11-01T00:12:50Z</time>
</trkpt>
<trkpt lat="43.899136" lon="5.447134">
<ele>409.00000</ele>
<time>2010-11-01T00:12:50Z</time>
</trkpt>
<trkpt lat="43.899109" lon="5.447016">
<ele>398.00000</ele>
<time>2010-11-01T00:12:54Z</time>
</trkpt>
<trkpt lat="43.899029" lon="5.446865">
<ele>398.00000</ele>
<time>2010-11-01T00:12:59Z</time>
</trkpt>
<trkpt lat="43.898921" lon="5.446690">
<ele>398.00000</ele>
<time>2010-11-01T00:13:06Z</time>
</trkpt>
<trkpt lat="43.898966" lon="5.446546">
<ele>398.00000</ele>
<time>2010-11-01T00:13:10Z</time>
</trkpt>
<trkpt lat="43.899039" lon="5.446520">
<ele>398.00000</ele>
<time>2010-11-01T00:13:13Z</time>
</trkpt>
<trkpt lat="43.899312" lon="5.446461">
<ele>398.00000</ele>
<time>2010-11-01T00:13:24Z</time>
</trkpt>
<trkpt lat="43.899502" lon="5.446414">
<ele>398.00000</ele>
<time>2010-11-01T00:13:32Z</time>
</trkpt>
<trkpt lat="43.899518" lon="5.446404">
<ele>398.00000</ele>
<time>2010-11-01T00:13:33Z</time>
</trkpt>
<trkpt lat="43.899608" lon="5.446402">
<ele>392.00000</ele>
<time>2010-11-01T00:13:36Z</time>
</trkpt>
<trkpt lat="43.899819" lon="5.446396">
<ele>392.00000</ele>
<time>2010-11-01T00:13:45Z</time>
</trkpt>
<trkpt lat="43.899949" lon="5.446393">
<ele>392.00000</ele>
<time>2010-11-01T00:13:50Z</time>
</trkpt>
<trkpt lat="43.900423" lon="5.446602">
<ele>379.00000</ele>
<time>2010-11-01T00:14:10Z</time>
</trkpt>
<trkpt lat="43.900576" lon="5.446691">
<ele>379.00000</ele>
<time>2010-11-01T00:14:17Z</time>
</trkpt>
<trkpt lat="43.900947" lon="5.446767">
<ele>379.00000</ele>
<time>2010-11-01T00:14:32Z</time>
</trkpt>
<trkpt lat="43.901009" lon="5.446749">
<ele>379.00000</ele>
<time>2010-11-01T00:14:34Z</time>
</trkpt>
<trkpt lat="43.901194" lon="5.446675">
<ele>379.00000</ele>
<time>2010-11-01T00:14:42Z</time>
</trkpt>
<trkpt lat="43.901221" lon="5.446629">
<ele>379.00000</ele>
<time>2010-11-01T00:14:44Z</time>
</trkpt>
<trkpt lat="43.901218" lon="5.446618">
<ele>379.00000</ele>
<time>2010-11-01T00:14:44Z</time>
</trkpt>
<trkpt lat="43.901215" lon="5.446608">
<ele>379.00000</ele>
<time>2010-11-01T00:14:44Z</time>
</trkpt>
<trkpt lat="43.901164" lon="5.446539">
<ele>379.00000</ele>
<time>2010-11-01T00:14:47Z</time>
</trkpt>
<trkpt lat="43.900988" lon="5.446397">
<ele>379.00000</ele>
<time>2010-11-01T00:14:55Z</time>
</trkpt>
<trkpt lat="43.900809" lon="5.446266">
<ele>379.00000</ele>
<time>2010-11-01T00:15:03Z</time>
</trkpt>
<trkpt lat="43.900686" lon="5.446175">
<ele>378.00000</ele>
<time>2010-11-01T00:15:09Z</time>
</trkpt>
<trkpt lat="43.900552" lon="5.446112">
<ele>378.00000</ele>
<time>2010-11-01T00:15:15Z</time>
</trkpt>
<trkpt lat="43.900441" lon="5.446039">
<ele>378.00000</ele>
<time>2010-11-01T00:15:19Z</time>
</trkpt>
<trkpt lat="43.900487" lon="5.445917">
<ele>378.00000</ele>
<time>2010-11-01T00:15:23Z</time>
</trkpt>
<trkpt lat="43.900665" lon="5.445766">
<ele>378.00000</ele>
<time>2010-11-01T00:15:32Z</time>
</trkpt>
<trkpt lat="43.900786" lon="5.445602">
<ele>378.00000</ele>
<time>2010-11-01T00:15:39Z</time>
</trkpt>
<trkpt lat="43.900905" lon="5.445428">
<ele>378.00000</ele>
<time>2010-11-01T00:15:45Z</time>
</trkpt>
<trkpt lat="43.900901" lon="5.445269">
<ele>387.00000</ele>
<time>2010-11-01T00:15:50Z</time>
</trkpt>
<trkpt lat="43.900934" lon="5.445061">
<ele>387.00000</ele>
<time>2010-11-01T00:15:56Z</time>
</trkpt>
<trkpt lat="43.901037" lon="5.444757">
<ele>387.00000</ele>
<time>2010-11-01T00:16:06Z</time>
</trkpt>
<trkpt lat="43.901159" lon="5.444452">
<ele>395.00000</ele>
<time>2010-11-01T00:16:16Z</time>
</trkpt>
<trkpt lat="43.901295" lon="5.444108">
<ele>373.00000</ele>
<time>2010-11-01T00:16:27Z</time>
</trkpt>
<trkpt lat="43.901441" lon="5.443734">
<ele>384.00000</ele>
<time>2010-11-01T00:16:40Z</time>
</trkpt>
<trkpt lat="43.901563" lon="5.443422">
<ele>384.00000</ele>
<time>2010-11-01T00:16:50Z</time>
</trkpt>
<trkpt lat="43.901606" lon="5.443333">
<ele>384.00000</ele>
<time>2010-11-01T00:16:53Z</time>
</trkpt>
<trkpt lat="43.901605" lon="5.443331">
<ele>384.00000</ele>
<time>2010-11-01T00:16:53Z</time>
</trkpt>
<trkpt lat="43.901611" lon="5.443334">
<ele>384.00000</ele>
<time>2010-11-01T00:16:53Z</time>
</trkpt>
<trkpt lat="43.901686" lon="5.443190">
<ele>384.00000</ele>
<time>2010-11-01T00:16:58Z</time>
</trkpt>
<trkpt lat="43.901813" lon="5.442926">
<ele>384.00000</ele>
<time>2010-11-01T00:17:07Z</time>
</trkpt>
<trkpt lat="43.901897" lon="5.442681">
<ele>389.00000</ele>
<time>2010-11-01T00:17:15Z</time>
</trkpt>
<trkpt lat="43.901891" lon="5.442508">
<ele>389.00000</ele>
<time>2010-11-01T00:17:20Z</time>
</trkpt>
<trkpt lat="43.901859" lon="5.442282">
<ele>389.00000</ele>
<time>2010-11-01T00:17:27Z</time>
</trkpt>
<trkpt lat="43.901779" lon="5.442065">
<ele>380.00000</ele>
<time>2010-11-01T00:17:34Z</time>
</trkpt>
<trkpt lat="43.901650" lon="5.441889">
<ele>380.00000</ele>
<time>2010-11-01T00:17:41Z</time>
</trkpt>
<trkpt lat="43.901365" lon="5.441692">
<ele>380.00000</ele>
<time>2010-11-01T00:17:54Z</time>
</trkpt>
<trkpt lat="43.901179" lon="5.441650">
<ele>389.00000</ele>
<time>2010-11-01T00:18:02Z</time>
</trkpt>
<trkpt lat="43.901063" lon="5.441668">
<ele>389.00000</ele>
<time>2010-11-01T00:18:06Z</time>
</trkpt>
<trkpt lat="43.900969" lon="5.441674">
<ele>389.00000</ele>
<time>2010-11-01T00:18:10Z</time>
</trkpt>
<trkpt lat="43.900887" lon="5.441693">
<ele>389.00000</ele>
<time>2010-11-01T00:18:13Z</time>
</trkpt>
<trkpt lat="43.900747" lon="5.441753">
<ele>389.00000</ele>
<time>2010-11-01T00:18:19Z</time>
</trkpt>
<trkpt lat="43.900611" lon="5.441754">
<ele>389.00000</ele>
<time>2010-11-01T00:18:25Z</time>
</trkpt>
<trkpt lat="43.900450" lon="5.441730">
<ele>389.00000</ele>
<time>2010-11-01T00:18:31Z</time>
</trkpt>
<trkpt lat="43.900308" lon="5.441714">
<ele>404.00000</ele>
<time>2010-11-01T00:18:37Z</time>
</trkpt>
<trkpt lat="43.900169" lon="5.441696">
<ele>404.00000</ele>
<time>2010-11-01T00:18:42Z</time>
</trkpt>
<trkpt lat="43.900048" lon="5.441629">
<ele>404.00000</ele>
<time>2010-11-01T00:18:48Z</time>
</trkpt>
<trkpt lat="43.899967" lon="5.441580">
<ele>404.00000</ele>
<time>2010-11-01T00:18:51Z</time>
</trkpt>
<trkpt lat="43.899854" lon="5.441543">
<ele>404.00000</ele>
<time>2010-11-01T00:18:56Z</time>
</trkpt>
<trkpt lat="43.899718" lon="5.441493">
<ele>404.00000</ele>
<time>2010-11-01T00:19:01Z</time>
</trkpt>
<trkpt lat="43.899594" lon="5.441434">
<ele>404.00000</ele>
<time>2010-11-01T00:19:07Z</time>
</trkpt>
<trkpt lat="43.899455" lon="5.441358">
<ele>414.00000</ele>
<time>2010-11-01T00:19:13Z</time>
</trkpt>
<trkpt lat="43.899347" lon="5.441324">
<ele>414.00000</ele>
<time>2010-11-01T00:19:17Z</time>
</trkpt>
<trkpt lat="43.899256" lon="5.441271">
<ele>414.00000</ele>
<time>2010-11-01T00:19:21Z</time>
</trkpt>
<trkpt lat="43.899158" lon="5.441220">
<ele>398.00000</ele>
<time>2010-11-01T00:19:25Z</time>
</trkpt>
<trkpt lat="43.899053" lon="5.441161">
<ele>398.00000</ele>
<time>2010-11-01T00:19:30Z</time>
</trkpt>
<trkpt lat="43.898948" lon="5.441101">
<ele>398.00000</ele>
<time>2010-11-01T00:19:34Z</time>
</trkpt>
<trkpt lat="43.898838" lon="5.441036">
<ele>398.00000</ele>
<time>2010-11-01T00:19:39Z</time>
</trkpt>
<trkpt lat="43.898692" lon="5.440976">
<ele>408.00000</ele>
<time>2010-11-01T00:19:45Z</time>
</trkpt>
<trkpt lat="43.898563" lon="5.440982">
<ele>408.00000</ele>
<time>2010-11-01T00:19:50Z</time>
</trkpt>
<trkpt lat="43.898494" lon="5.441036">
<ele>408.00000</ele>
<time>2010-11-01T00:19:53Z</time>
</trkpt>
<trkpt lat="43.898431" lon="5.441102">
<ele>408.00000</ele>
<time>2010-11-01T00:19:57Z</time>
</trkpt>
<trkpt lat="43.898427" lon="5.441111">
<ele>408.00000</ele>
<time>2010-11-01T00:19:57Z</time>
</trkpt>
<trkpt lat="43.898421" lon="5.441101">
<ele>408.00000</ele>
<time>2010-11-01T00:19:57Z</time>
</trkpt>
<trkpt lat="43.898330" lon="5.441046">
<ele>408.00000</ele>
<time>2010-11-01T00:20:01Z</time>
</trkpt>
<trkpt lat="43.898168" lon="5.440925">
<ele>408.00000</ele>
<time>2010-11-01T00:20:09Z</time>
</trkpt>
<trkpt lat="43.898137" lon="5.440888">
<ele>408.00000</ele>
<time>2010-11-01T00:20:10Z</time>
</trkpt>
<trkpt lat="43.897928" lon="5.440755">
<ele>408.00000</ele>
<time>2010-11-01T00:20:20Z</time>
</trkpt>
<trkpt lat="43.897724" lon="5.440656">
<ele>406.00000</ele>
<time>2010-11-01T00:20:28Z</time>
</trkpt>
<trkpt lat="43.897460" lon="5.440411">
<ele>399.00000</ele>
<time>2010-11-01T00:20:41Z</time>
</trkpt>
<trkpt lat="43.897388" lon="5.440371">
<ele>399.00000</ele>
<time>2010-11-01T00:20:44Z</time>
</trkpt>
<trkpt lat="43.897036" lon="5.440091">
<ele>398.00000</ele>
<time>2010-11-01T00:21:00Z</time>
</trkpt>
<trkpt lat="43.896964" lon="5.440031">
<ele>398.00000</ele>
<time>2010-11-01T00:21:04Z</time>
</trkpt>
<trkpt lat="43.896685" lon="5.439763">
<ele>398.00000</ele>
<time>2010-11-01T00:21:17Z</time>
</trkpt>
<trkpt lat="43.896462" lon="5.439456">
<ele>389.00000</ele>
<time>2010-11-01T00:21:30Z</time>
</trkpt>
<trkpt lat="43.896322" lon="5.439423">
<ele>389.00000</ele>
<time>2010-11-01T00:21:35Z</time>
</trkpt>
<trkpt lat="43.896147" lon="5.439332">
<ele>387.00000</ele>
<time>2010-11-01T00:21:43Z</time>
</trkpt>
<trkpt lat="43.896098" lon="5.439302">
<ele>387.00000</ele>
<time>2010-11-01T00:21:45Z</time>
</trkpt>
<trkpt lat="43.895984" lon="5.439071">
<ele>387.00000</ele>
<time>2010-11-01T00:21:53Z</time>
</trkpt>
<trkpt lat="43.895952" lon="5.439002">
<ele>387.00000</ele>
<time>2010-11-01T00:21:55Z</time>
</trkpt>
<trkpt lat="43.895871" lon="5.438877">
<ele>387.00000</ele>
<time>2010-11-01T00:22:00Z</time>
</trkpt>
<trkpt lat="43.895750" lon="5.438799">
<ele>387.00000</ele>
<time>2010-11-01T00:22:06Z</time>
</trkpt>
<trkpt lat="43.895711" lon="5.438619">
<ele>377.00000</ele>
<time>2010-11-01T00:22:11Z</time>
</trkpt>
<trkpt lat="43.895742" lon="5.438509">
<ele>377.00000</ele>
<time>2010-11-01T00:22:15Z</time>
</trkpt>
<trkpt lat="43.895783" lon="5.438267">
<ele>377.00000</ele>
<time>2010-11-01T00:22:22Z</time>
</trkpt>
<trkpt lat="43.895854" lon="5.438119">
<ele>377.00000</ele>
<time>2010-11-01T00:22:27Z</time>
</trkpt>
<trkpt lat="43.895891" lon="5.437937">
<ele>377.00000</ele>
<time>2010-11-01T00:22:32Z</time>
</trkpt>
<trkpt lat="43.895864" lon="5.437843">
<ele>356.00000</ele>
<time>2010-11-01T00:22:35Z</time>
</trkpt>
<trkpt lat="43.895863" lon="5.437834">
<ele>356.00000</ele>
<time>2010-11-01T00:22:35Z</time>
</trkpt>
<trkpt lat="43.895840" lon="5.437701">
<ele>356.00000</ele>
<time>2010-11-01T00:22:39Z</time>
</trkpt>
<trkpt lat="43.895811" lon="5.437517">
<ele>356.00000</ele>
<time>2010-11-01T00:22:45Z</time>
</trkpt>
<trkpt lat="43.895799" lon="5.437451">
<ele>356.00000</ele>
<time>2010-11-01T00:22:47Z</time>
</trkpt>
<trkpt lat="43.895796" lon="5.437442">
<ele>356.00000</ele>
<time>2010-11-01T00:22:47Z</time>
</trkpt>
<trkpt lat="43.895766" lon="5.437321">
<ele>356.00000</ele>
<time>2010-11-01T00:22:51Z</time>
</trkpt>
<trkpt lat="43.895730" lon="5.437232">
<ele>356.00000</ele>
<time>2010-11-01T00:22:54Z</time>
</trkpt>
<trkpt lat="43.895580" lon="5.437074">
<ele>337.00000</ele>
<time>2010-11-01T00:23:01Z</time>
</trkpt>
<trkpt lat="43.895407" lon="5.436868">
<ele>352.00000</ele>
<time>2010-11-01T00:23:10Z</time>
</trkpt>
<trkpt lat="43.895257" lon="5.436683">
<ele>352.00000</ele>
<time>2010-11-01T00:23:18Z</time>
</trkpt>
<trkpt lat="43.895138" lon="5.436585">
<ele>352.00000</ele>
<time>2010-11-01T00:23:24Z</time>
</trkpt>
<trkpt lat="43.894986" lon="5.436521">
<ele>352.00000</ele>
<time>2010-11-01T00:23:30Z</time>
</trkpt>
<trkpt lat="43.894922" lon="5.436463">
<ele>352.00000</ele>
<time>2010-11-01T00:23:33Z</time>
</trkpt>
<trkpt lat="43.894922" lon="5.436464">
<ele>352.00000</ele>
<time>2010-11-01T00:23:33Z</time>
</trkpt>
<trkpt lat="43.894892" lon="5.436484">
<ele>352.00000</ele>
<time>2010-11-01T00:23:35Z</time>
</trkpt>
<trkpt lat="43.894853" lon="5.436361">
<ele>352.00000</ele>
<time>2010-11-01T00:23:39Z</time>
</trkpt>
<trkpt lat="43.894797" lon="5.436085">
<ele>331.00000</ele>
<time>2010-11-01T00:23:47Z</time>
</trkpt>
<trkpt lat="43.894767" lon="5.435876">
<ele>331.00000</ele>
<time>2010-11-01T00:23:53Z</time>
</trkpt>
<trkpt lat="43.894752" lon="5.435769">
<ele>331.00000</ele>
<time>2010-11-01T00:23:56Z</time>
</trkpt>
<trkpt lat="43.894732" lon="5.435764">
<ele>331.00000</ele>
<time>2010-11-01T00:23:57Z</time>
</trkpt>
<trkpt lat="43.894583" lon="5.435672">
<ele>331.00000</ele>
<time>2010-11-01T00:24:03Z</time>
</trkpt>
<trkpt lat="43.894509" lon="5.435602">
<ele>340.00000</ele>
<time>2010-11-01T00:24:07Z</time>
</trkpt>
<trkpt lat="43.894180" lon="5.435414">
<ele>320.00000</ele>
<time>2010-11-01T00:24:21Z</time>
</trkpt>
<trkpt lat="43.894118" lon="5.435388">
<ele>320.00000</ele>
<time>2010-11-01T00:24:24Z</time>
</trkpt>
<trkpt lat="43.893898" lon="5.435219">
<ele>320.00000</ele>
<time>2010-11-01T00:24:34Z</time>
</trkpt>
<trkpt lat="43.893565" lon="5.434816">
<ele>336.00000</ele>
<time>2010-11-01T00:24:52Z</time>
</trkpt>
<trkpt lat="43.893490" lon="5.434683">
<ele>336.00000</ele>
<time>2010-11-01T00:24:57Z</time>
</trkpt>
<trkpt lat="43.893363" lon="5.434500">
<ele>321.00000</ele>
<time>2010-11-01T00:25:04Z</time>
</trkpt>
<trkpt lat="43.893172" lon="5.434177">
<ele>321.00000</ele>
<time>2010-11-01T00:25:16Z</time>
</trkpt>
<trkpt lat="43.893091" lon="5.434067">
<ele>321.00000</ele>
<time>2010-11-01T00:25:20Z</time>
</trkpt>
<trkpt lat="43.892802" lon="5.433713">
<ele>310.00000</ele>
<time>2010-11-01T00:25:36Z</time>
</trkpt>
<trkpt lat="43.892600" lon="5.433523">
<ele>310.00000</ele>
<time>2010-11-01T00:25:46Z</time>
</trkpt>
<trkpt lat="43.892469" lon="5.433329">
<ele>310.00000</ele>
<time>2010-11-01T00:25:53Z</time>
</trkpt>
<trkpt lat="43.892283" lon="5.433226">
<ele>310.00000</ele>
<time>2010-11-01T00:26:01Z</time>
</trkpt>
<trkpt lat="43.892000" lon="5.433016">
<ele>308.00000</ele>
<time>2010-11-01T00:26:14Z</time>
</trkpt>
<trkpt lat="43.891904" lon="5.432907">
<ele>288.00000</ele>
<time>2010-11-01T00:26:19Z</time>
</trkpt>
<trkpt lat="43.891784" lon="5.432811">
<ele>288.00000</ele>
<time>2010-11-01T00:26:25Z</time>
</trkpt>
<trkpt lat="43.891762" lon="5.432856">
<ele>288.00000</ele>
<time>2010-11-01T00:26:26Z</time>
</trkpt>
<trkpt lat="43.891701" lon="5.433026">
<ele>308.00000</ele>
<time>2010-11-01T00:26:32Z</time>
</trkpt>
<trkpt lat="43.891641" lon="5.433207">
<ele>308.00000</ele>
<time>2010-11-01T00:26:37Z</time>
</trkpt>
<trkpt lat="43.891543" lon="5.433338">
<ele>308.00000</ele>
<time>2010-11-01T00:26:43Z</time>
</trkpt>
<trkpt lat="43.891429" lon="5.433476">
<ele>308.00000</ele>
<time>2010-11-01T00:26:49Z</time>
</trkpt>
<trkpt lat="43.891304" lon="5.433751">
<ele>320.00000</ele>
<time>2010-11-01T00:26:58Z</time>
</trkpt>
<trkpt lat="43.891248" lon="5.433872">
<ele>298.00000</ele>
<time>2010-11-01T00:27:03Z</time>
</trkpt>
<trkpt lat="43.891148" lon="5.434124">
<ele>298.00000</ele>
<time>2010-11-01T00:27:11Z</time>
</trkpt>
<trkpt lat="43.891110" lon="5.434293">
<ele>298.00000</ele>
<time>2010-11-01T00:27:16Z</time>
</trkpt>
<trkpt lat="43.891002" lon="5.434424">
<ele>298.00000</ele>
<time>2010-11-01T00:27:22Z</time>
</trkpt>
<trkpt lat="43.890917" lon="5.434538">
<ele>298.00000</ele>
<time>2010-11-01T00:27:26Z</time>
</trkpt>
<trkpt lat="43.890859" lon="5.434782">
<ele>306.00000</ele>
<time>2010-11-01T00:27:34Z</time>
</trkpt>
<trkpt lat="43.890850" lon="5.434823">
<ele>306.00000</ele>
<time>2010-11-01T00:27:35Z</time>
</trkpt>
<trkpt lat="43.890824" lon="5.434957">
<ele>306.00000</ele>
<time>2010-11-01T00:27:39Z</time>
</trkpt>
<trkpt lat="43.890827" lon="5.434959">
<ele>306.00000</ele>
<time>2010-11-01T00:27:39Z</time>
</trkpt>
<trkpt lat="43.890825" lon="5.434955">
<ele>306.00000</ele>
<time>2010-11-01T00:27:39Z</time>
</trkpt>
<trkpt lat="43.890700" lon="5.435030">
<ele>306.00000</ele>
<time>2010-11-01T00:27:45Z</time>
</trkpt>
<trkpt lat="43.890622" lon="5.435067">
<ele>306.00000</ele>
<time>2010-11-01T00:27:48Z</time>
</trkpt>
<trkpt lat="43.890492" lon="5.435041">
<ele>306.00000</ele>
<time>2010-11-01T00:27:53Z</time>
</trkpt>
<trkpt lat="43.890479" lon="5.435028">
<ele>306.00000</ele>
<time>2010-11-01T00:27:54Z</time>
</trkpt>
<trkpt lat="43.890452" lon="5.434997">
<ele>306.00000</ele>
<time>2010-11-01T00:27:55Z</time>
</trkpt>
<trkpt lat="43.890387" lon="5.435045">
<ele>298.00000</ele>
<time>2010-11-01T00:27:58Z</time>
</trkpt>
<trkpt lat="43.890386" lon="5.435044">
<ele>298.00000</ele>
<time>2010-11-01T00:27:58Z</time>
</trkpt>
<trkpt lat="43.890384" lon="5.435040">
<ele>298.00000</ele>
<time>2010-11-01T00:27:59Z</time>
</trkpt>
<trkpt lat="43.890380" lon="5.435032">
<ele>298.00000</ele>
<time>2010-11-01T00:27:59Z</time>
</trkpt>
<trkpt lat="43.890374" lon="5.435023">
<ele>298.00000</ele>
<time>2010-11-01T00:27:59Z</time>
</trkpt>
<trkpt lat="43.890348" lon="5.434852">
<ele>298.00000</ele>
<time>2010-11-01T00:28:04Z</time>
</trkpt>
<trkpt lat="43.890320" lon="5.434558">
<ele>291.00000</ele>
<time>2010-11-01T00:28:13Z</time>
</trkpt>
<trkpt lat="43.890325" lon="5.434013">
<ele>291.00000</ele>
<time>2010-11-01T00:28:28Z</time>
</trkpt>
<trkpt lat="43.890238" lon="5.433752">
<ele>291.00000</ele>
<time>2010-11-01T00:28:37Z</time>
</trkpt>
<trkpt lat="43.890197" lon="5.433676">
<ele>285.00000</ele>
<time>2010-11-01T00:28:39Z</time>
</trkpt>
<trkpt lat="43.890004" lon="5.433242">
<ele>285.00000</ele>
<time>2010-11-01T00:28:54Z</time>
</trkpt>
<trkpt lat="43.889919" lon="5.432976">
<ele>285.00000</ele>
<time>2010-11-01T00:29:03Z</time>
</trkpt>
<trkpt lat="43.889743" lon="5.432548">
<ele>281.00000</ele>
<time>2010-11-01T00:29:17Z</time>
</trkpt>
<trkpt lat="43.889640" lon="5.432338">
<ele>281.00000</ele>
<time>2010-11-01T00:29:24Z</time>
</trkpt>
<trkpt lat="43.889546" lon="5.432056">
<ele>290.00000</ele>
<time>2010-11-01T00:29:33Z</time>
</trkpt>
<trkpt lat="43.889507" lon="5.431637">
<ele>290.00000</ele>
<time>2010-11-01T00:29:45Z</time>
</trkpt>
<trkpt lat="43.889447" lon="5.431081">
<ele>280.00000</ele>
<time>2010-11-01T00:30:02Z</time>
</trkpt>
<trkpt lat="43.889423" lon="5.430928">
<ele>280.00000</ele>
<time>2010-11-01T00:30:06Z</time>
</trkpt>
<trkpt lat="43.889339" lon="5.430737">
<ele>280.00000</ele>
<time>2010-11-01T00:30:12Z</time>
</trkpt>
<trkpt lat="43.889290" lon="5.430620">
<ele>280.00000</ele>
<time>2010-11-01T00:30:16Z</time>
</trkpt>
<trkpt lat="43.889208" lon="5.430449">
<ele>280.00000</ele>
<time>2010-11-01T00:30:22Z</time>
</trkpt>
<trkpt lat="43.889099" lon="5.430283">
<ele>260.00000</ele>
<time>2010-11-01T00:30:29Z</time>
</trkpt>
<trkpt lat="43.889039" lon="5.430101">
<ele>260.00000</ele>
<time>2010-11-01T00:30:35Z</time>
</trkpt>
<trkpt lat="43.888983" lon="5.430001">
<ele>260.00000</ele>
<time>2010-11-01T00:30:38Z</time>
</trkpt>
<trkpt lat="43.888899" lon="5.429973">
<ele>260.00000</ele>
<time>2010-11-01T00:30:42Z</time>
</trkpt>
<trkpt lat="43.888897" lon="5.429974">
<ele>260.00000</ele>
<time>2010-11-01T00:30:42Z</time>
</trkpt>
<trkpt lat="43.888888" lon="5.429977">
<ele>260.00000</ele>
<time>2010-11-01T00:30:42Z</time>
</trkpt>
<trkpt lat="43.888865" lon="5.429968">
<ele>260.00000</ele>
<time>2010-11-01T00:30:43Z</time>
</trkpt>
<trkpt lat="43.888839" lon="5.429968">
<ele>260.00000</ele>
<time>2010-11-01T00:30:44Z</time>
</trkpt>
<trkpt lat="43.888835" lon="5.429962">
<ele>260.00000</ele>
<time>2010-11-01T00:30:44Z</time>
</trkpt>
<trkpt lat="43.888716" lon="5.429926">
<ele>276.00000</ele>
<time>2010-11-01T00:30:49Z</time>
</trkpt>
<trkpt lat="43.888602" lon="5.429893">
<ele>276.00000</ele>
<time>2010-11-01T00:30:54Z</time>
</trkpt>
<trkpt lat="43.888574" lon="5.429880">
<ele>276.00000</ele>
<time>2010-11-01T00:30:55Z</time>
</trkpt>
<trkpt lat="43.888569" lon="5.429875">
<ele>276.00000</ele>
<time>2010-11-01T00:30:55Z</time>
</trkpt>
<trkpt lat="43.888561" lon="5.429874">
<ele>276.00000</ele>
<time>2010-11-01T00:30:56Z</time>
</trkpt>
<trkpt lat="43.888553" lon="5.429869">
<ele>276.00000</ele>
<time>2010-11-01T00:30:56Z</time>
</trkpt>
<trkpt lat="43.888538" lon="5.429861">
<ele>276.00000</ele>
<time>2010-11-01T00:30:57Z</time>
</trkpt>
<trkpt lat="43.888405" lon="5.429817">
<ele>276.00000</ele>
<time>2010-11-01T00:31:02Z</time>
</trkpt>
<trkpt lat="43.888218" lon="5.429785">
<ele>276.00000</ele>
<time>2010-11-01T00:31:10Z</time>
</trkpt>
<trkpt lat="43.888098" lon="5.429751">
<ele>276.00000</ele>
<time>2010-11-01T00:31:15Z</time>
</trkpt>
<trkpt lat="43.887995" lon="5.429684">
<ele>276.00000</ele>
<time>2010-11-01T00:31:19Z</time>
</trkpt>
<trkpt lat="43.887844" lon="5.429605">
<ele>291.00000</ele>
<time>2010-11-01T00:31:26Z</time>
</trkpt>
<trkpt lat="43.887747" lon="5.429531">
<ele>268.00000</ele>
<time>2010-11-01T00:31:30Z</time>
</trkpt>
<trkpt lat="43.887630" lon="5.429453">
<ele>268.00000</ele>
<time>2010-11-01T00:31:35Z</time>
</trkpt>
<trkpt lat="43.887515" lon="5.429386">
<ele>268.00000</ele>
<time>2010-11-01T00:31:40Z</time>
</trkpt>
<trkpt lat="43.887401" lon="5.429332">
<ele>268.00000</ele>
<time>2010-11-01T00:31:45Z</time>
</trkpt>
<trkpt lat="43.887278" lon="5.429287">
<ele>268.00000</ele>
<time>2010-11-01T00:31:50Z</time>
</trkpt>
<trkpt lat="43.887157" lon="5.429245">
<ele>268.00000</ele>
<time>2010-11-01T00:31:55Z</time>
</trkpt>
<trkpt lat="43.887012" lon="5.429168">
<ele>282.00000</ele>
<time>2010-11-01T00:32:01Z</time>
</trkpt>
<trkpt lat="43.886968" lon="5.429142">
<ele>282.00000</ele>
<time>2010-11-01T00:32:03Z</time>
</trkpt>
<trkpt lat="43.886767" lon="5.429095">
<ele>282.00000</ele>
<time>2010-11-01T00:32:11Z</time>
</trkpt>
<trkpt lat="43.886660" lon="5.428990">
<ele>282.00000</ele>
<time>2010-11-01T00:32:17Z</time>
</trkpt>
<trkpt lat="43.886568" lon="5.428896">
<ele>282.00000</ele>
<time>2010-11-01T00:32:21Z</time>
</trkpt>
<trkpt lat="43.886547" lon="5.428861">
<ele>282.00000</ele>
<time>2010-11-01T00:32:23Z</time>
</trkpt>
<trkpt lat="43.886440" lon="5.428789">
<ele>282.00000</ele>
<time>2010-11-01T00:32:27Z</time>
</trkpt>
<trkpt lat="43.886354" lon="5.428712">
<ele>260.00000</ele>
<time>2010-11-01T00:32:31Z</time>
</trkpt>
<trkpt lat="43.886341" lon="5.428713">
<ele>260.00000</ele>
<time>2010-11-01T00:32:32Z</time>
</trkpt>
<trkpt lat="43.886338" lon="5.428710">
<ele>260.00000</ele>
<time>2010-11-01T00:32:32Z</time>
</trkpt>
<trkpt lat="43.886276" lon="5.428690">
<ele>260.00000</ele>
<time>2010-11-01T00:32:35Z</time>
</trkpt>
<trkpt lat="43.886263" lon="5.428679">
<ele>260.00000</ele>
<time>2010-11-01T00:32:35Z</time>
</trkpt>
<trkpt lat="43.886255" lon="5.428667">
<ele>260.00000</ele>
<time>2010-11-01T00:32:36Z</time>
</trkpt>
<trkpt lat="43.886213" lon="5.428635">
<ele>278.00000</ele>
<time>2010-11-01T00:32:38Z</time>
</trkpt>
<trkpt lat="43.886091" lon="5.428618">
<ele>278.00000</ele>
<time>2010-11-01T00:32:43Z</time>
</trkpt>
<trkpt lat="43.886008" lon="5.428525">
<ele>278.00000</ele>
<time>2010-11-01T00:32:47Z</time>
</trkpt>
<trkpt lat="43.885962" lon="5.428461">
<ele>278.00000</ele>
<time>2010-11-01T00:32:49Z</time>
</trkpt>
<trkpt lat="43.885831" lon="5.428394">
<ele>278.00000</ele>
<time>2010-11-01T00:32:55Z</time>
</trkpt>
<trkpt lat="43.885705" lon="5.428338">
<ele>278.00000</ele>
<time>2010-11-01T00:33:00Z</time>
</trkpt>
<trkpt lat="43.885644" lon="5.428306">
<ele>278.00000</ele>
<time>2010-11-01T00:33:03Z</time>
</trkpt>
<trkpt lat="43.885644" lon="5.428307">
<ele>278.00000</ele>
<time>2010-11-01T00:33:03Z</time>
</trkpt>
<trkpt lat="43.885623" lon="5.428311">
<ele>278.00000</ele>
<time>2010-11-01T00:33:04Z</time>
</trkpt>
<trkpt lat="43.885530" lon="5.428213">
<ele>278.00000</ele>
<time>2010-11-01T00:33:08Z</time>
</trkpt>
<trkpt lat="43.885319" lon="5.427981">
<ele>286.00000</ele>
<time>2010-11-01T00:33:19Z</time>
</trkpt>
<trkpt lat="43.885188" lon="5.427809">
<ele>272.00000</ele>
<time>2010-11-01T00:33:26Z</time>
</trkpt>
<trkpt lat="43.884922" lon="5.427543">
<ele>272.00000</ele>
<time>2010-11-01T00:33:40Z</time>
</trkpt>
<trkpt lat="43.884455" lon="5.427154">
<ele>276.00000</ele>
<time>2010-11-01T00:34:01Z</time>
</trkpt>
<trkpt lat="43.884250" lon="5.426843">
<ele>269.00000</ele>
<time>2010-11-01T00:34:14Z</time>
</trkpt>
<trkpt lat="43.884215" lon="5.426659">
<ele>269.00000</ele>
<time>2010-11-01T00:34:19Z</time>
</trkpt>
<trkpt lat="43.884152" lon="5.426284">
<ele>269.00000</ele>
<time>2010-11-01T00:34:30Z</time>
</trkpt>
<trkpt lat="43.883914" lon="5.425853">
<ele>258.00000</ele>
<time>2010-11-01T00:34:46Z</time>
</trkpt>
<trkpt lat="43.883404" lon="5.425301">
<ele>259.00000</ele>
<time>2010-11-01T00:35:12Z</time>
</trkpt>
<trkpt lat="43.882946" lon="5.424763">
<ele>259.00000</ele>
<time>2010-11-01T00:35:36Z</time>
</trkpt>
<trkpt lat="43.882510" lon="5.424158">
<ele>258.00000</ele>
<time>2010-11-01T00:36:00Z</time>
</trkpt>
<trkpt lat="43.882196" lon="5.423640">
<ele>244.00000</ele>
<time>2010-11-01T00:36:20Z</time>
</trkpt>
<trkpt lat="43.882047" lon="5.423424">
<ele>245.00000</ele>
<time>2010-11-01T00:36:29Z</time>
</trkpt>
<trkpt lat="43.881621" lon="5.423057">
<ele>245.00000</ele>
<time>2010-11-01T00:36:49Z</time>
</trkpt>
<trkpt lat="43.881230" lon="5.422808">
<ele>235.00000</ele>
<time>2010-11-01T00:37:06Z</time>
</trkpt>
<trkpt lat="43.881185" lon="5.422777">
<ele>235.00000</ele>
<time>2010-11-01T00:37:08Z</time>
</trkpt>
<trkpt lat="43.881148" lon="5.422596">
<ele>235.00000</ele>
<time>2010-11-01T00:37:13Z</time>
</trkpt>
<trkpt lat="43.881231" lon="5.422276">
<ele>235.00000</ele>
<time>2010-11-01T00:37:23Z</time>
</trkpt>
<trkpt lat="43.881341" lon="5.421909">
<ele>236.00000</ele>
<time>2010-11-01T00:37:35Z</time>
</trkpt>
<trkpt lat="43.881463" lon="5.421488">
<ele>236.00000</ele>
<time>2010-11-01T00:37:48Z</time>
</trkpt>
<trkpt lat="43.881599" lon="5.421060">
<ele>241.00000</ele>
<time>2010-11-01T00:38:01Z</time>
</trkpt>
<trkpt lat="43.881615" lon="5.420969">
<ele>241.00000</ele>
<time>2010-11-01T00:38:04Z</time>
</trkpt>
<trkpt lat="43.881525" lon="5.420851">
<ele>241.00000</ele>
<time>2010-11-01T00:38:09Z</time>
</trkpt>
<trkpt lat="43.881326" lon="5.420755">
<ele>241.00000</ele>
<time>2010-11-01T00:38:17Z</time>
</trkpt>
<trkpt lat="43.881121" lon="5.420619">
<ele>235.00000</ele>
<time>2010-11-01T00:38:26Z</time>
</trkpt>
<trkpt lat="43.880950" lon="5.420331">
<ele>241.00000</ele>
<time>2010-11-01T00:38:37Z</time>
</trkpt>
<trkpt lat="43.880811" lon="5.420002">
<ele>241.00000</ele>
<time>2010-11-01T00:38:48Z</time>
</trkpt>
<trkpt lat="43.880684" lon="5.419467">
<ele>243.00000</ele>
<time>2010-11-01T00:39:04Z</time>
</trkpt>
<trkpt lat="43.880650" lon="5.419238">
<ele>243.00000</ele>
<time>2010-11-01T00:39:11Z</time>
</trkpt>
<trkpt lat="43.880587" lon="5.418641">
<ele>244.00000</ele>
<time>2010-11-01T00:39:29Z</time>
</trkpt>
<trkpt lat="43.880586" lon="5.418250">
<ele>244.00000</ele>
<time>2010-11-01T00:39:40Z</time>
</trkpt>
<trkpt lat="43.880618" lon="5.417559">
<ele>240.00000</ele>
<time>2010-11-01T00:40:00Z</time>
</trkpt>
<trkpt lat="43.880692" lon="5.415916">
<ele>239.00000</ele>
<time>2010-11-01T00:40:47Z</time>
</trkpt>
<trkpt lat="43.880707" lon="5.415165">
<ele>242.00000</ele>
<time>2010-11-01T00:41:09Z</time>
</trkpt>
<trkpt lat="43.880571" lon="5.412416">
<ele>247.00000</ele>
<time>2010-11-01T00:42:28Z</time>
</trkpt>
<trkpt lat="43.880516" lon="5.411933">
<ele>249.00000</ele>
<time>2010-11-01T00:42:43Z</time>
</trkpt>
<trkpt lat="43.880417" lon="5.411053">
<ele>252.00000</ele>
<time>2010-11-01T00:43:08Z</time>
</trkpt>
<trkpt lat="43.880303" lon="5.410403">
<ele>237.00000</ele>
<time>2010-11-01T00:43:28Z</time>
</trkpt>
<trkpt lat="43.880047" lon="5.409651">
<ele>237.00000</ele>
<time>2010-11-01T00:43:52Z</time>
</trkpt>
<trkpt lat="43.880201" lon="5.408689">
<ele>234.00000</ele>
<time>2010-11-01T00:44:20Z</time>
</trkpt>
<trkpt lat="43.880240" lon="5.408087">
<ele>234.00000</ele>
<time>2010-11-01T00:44:37Z</time>
</trkpt>
<trkpt lat="43.880223" lon="5.407655">
<ele>235.00000</ele>
<time>2010-11-01T00:44:50Z</time>
</trkpt>
<trkpt lat="43.880205" lon="5.407516">
<ele>235.00000</ele>
<time>2010-11-01T00:44:54Z</time>
</trkpt>
<trkpt lat="43.880192" lon="5.407380">
<ele>235.00000</ele>
<time>2010-11-01T00:44:58Z</time>
</trkpt>
<trkpt lat="43.880140" lon="5.407128">
<ele>235.00000</ele>
<time>2010-11-01T00:45:06Z</time>
</trkpt>
<trkpt lat="43.879950" lon="5.406487">
<ele>239.00000</ele>
<time>2010-11-01T00:45:26Z</time>
</trkpt>
<trkpt lat="43.879884" lon="5.406304">
<ele>239.00000</ele>
<time>2010-11-01T00:45:31Z</time>
</trkpt>
<trkpt lat="43.879847" lon="5.406165">
<ele>243.00000</ele>
<time>2010-11-01T00:45:36Z</time>
</trkpt>
<trkpt lat="43.879743" lon="5.405663">
<ele>243.00000</ele>
<time>2010-11-01T00:45:51Z</time>
</trkpt>
<trkpt lat="43.879457" lon="5.405134">
<ele>234.00000</ele>
<time>2010-11-01T00:46:10Z</time>
</trkpt>
<trkpt lat="43.879119" lon="5.405080">
<ele>234.00000</ele>
<time>2010-11-01T00:46:23Z</time>
</trkpt>
<trkpt lat="43.879010" lon="5.404844">
<ele>234.00000</ele>
<time>2010-11-01T00:46:32Z</time>
</trkpt>
<trkpt lat="43.878840" lon="5.404651">
<ele>234.00000</ele>
<time>2010-11-01T00:46:40Z</time>
</trkpt>
<trkpt lat="43.878624" lon="5.404158">
<ele>228.00000</ele>
<time>2010-11-01T00:46:57Z</time>
</trkpt>
<trkpt lat="43.878423" lon="5.403879">
<ele>228.00000</ele>
<time>2010-11-01T00:47:08Z</time>
</trkpt>
<trkpt lat="43.877696" lon="5.402827">
<ele>229.00000</ele>
<time>2010-11-01T00:47:50Z</time>
</trkpt>
<trkpt lat="43.878113" lon="5.403407">
<ele>232.00000</ele>
<time>2010-11-01T00:48:14Z</time>
</trkpt>
<trkpt lat="43.878206" lon="5.403578">
<ele>232.00000</ele>
<time>2010-11-01T00:48:20Z</time>
</trkpt>
<trkpt lat="43.878686" lon="5.404415">
<ele>228.00000</ele>
<time>2010-11-01T00:48:51Z</time>
</trkpt>
<trkpt lat="43.879650" lon="5.405800">
<ele>243.00000</ele>
<time>2010-11-01T00:49:47Z</time>
</trkpt>
<trkpt lat="43.880110" lon="5.407610">
<ele>235.00000</ele>
<time>2010-11-01T00:50:42Z</time>
</trkpt>
<trkpt lat="43.880140" lon="5.408060">
<ele>234.00000</ele>
<time>2010-11-01T00:50:55Z</time>
</trkpt>
<trkpt lat="43.880464" lon="5.409801">
<ele>252.00000</ele>
<time>2010-11-01T00:51:47Z</time>
</trkpt>
<trkpt lat="43.880665" lon="5.410509">
<ele>252.00000</ele>
<time>2010-11-01T00:52:09Z</time>
</trkpt>
<trkpt lat="43.881160" lon="5.412354">
<ele>247.00000</ele>
<time>2010-11-01T00:53:06Z</time>
</trkpt>
<trkpt lat="43.881655" lon="5.413213">
<ele>261.00000</ele>
<time>2010-11-01T00:53:37Z</time>
</trkpt>
<trkpt lat="43.882570" lon="5.413750">
<ele>275.00000</ele>
<time>2010-11-01T00:54:17Z</time>
</trkpt>
<trkpt lat="43.883380" lon="5.413520">
<ele>285.00000</ele>
<time>2010-11-01T00:54:50Z</time>
</trkpt>
<trkpt lat="43.883650" lon="5.413260">
<ele>285.00000</ele>
<time>2010-11-01T00:55:03Z</time>
</trkpt>
<trkpt lat="43.883700" lon="5.413050">
<ele>285.00000</ele>
<time>2010-11-01T00:55:10Z</time>
</trkpt>
<trkpt lat="43.883700" lon="5.412750">
<ele>288.00000</ele>
<time>2010-11-01T00:55:19Z</time>
</trkpt>
<trkpt lat="43.883630" lon="5.412500">
<ele>288.00000</ele>
<time>2010-11-01T00:55:26Z</time>
</trkpt>
<trkpt lat="43.883260" lon="5.412000">
<ele>297.00000</ele>
<time>2010-11-01T00:55:47Z</time>
</trkpt>
<trkpt lat="43.882860" lon="5.411160">
<ele>296.00000</ele>
<time>2010-11-01T00:56:16Z</time>
</trkpt>
<trkpt lat="43.883016" lon="5.410552">
<ele>307.00000</ele>
<time>2010-11-01T00:56:35Z</time>
</trkpt>
<trkpt lat="43.883449" lon="5.410295">
<ele>306.00000</ele>
<time>2010-11-01T00:56:53Z</time>
</trkpt>
<trkpt lat="43.884037" lon="5.410080">
<ele>322.00000</ele>
<time>2010-11-01T00:57:18Z</time>
</trkpt>
<trkpt lat="43.885058" lon="5.409780">
<ele>335.00000</ele>
<time>2010-11-01T00:58:00Z</time>
</trkpt>
<trkpt lat="43.885645" lon="5.409608">
<ele>341.00000</ele>
<time>2010-11-01T00:58:24Z</time>
</trkpt>
<trkpt lat="43.886016" lon="5.409608">
<ele>341.00000</ele>
<time>2010-11-01T00:58:38Z</time>
</trkpt>
<trkpt lat="43.886264" lon="5.409565">
<ele>354.00000</ele>
<time>2010-11-01T00:58:48Z</time>
</trkpt>
<trkpt lat="43.886573" lon="5.409608">
<ele>350.00000</ele>
<time>2010-11-01T00:59:01Z</time>
</trkpt>
<trkpt lat="43.886883" lon="5.409179">
<ele>354.00000</ele>
<time>2010-11-01T00:59:18Z</time>
</trkpt>
<trkpt lat="43.887841" lon="5.409780">
<ele>360.00000</ele>
<time>2010-11-01T01:00:01Z</time>
</trkpt>
<trkpt lat="43.889542" lon="5.409908">
<ele>376.00000</ele>
<time>2010-11-01T01:01:09Z</time>
</trkpt>
<trkpt lat="43.890594" lon="5.410123">
<ele>386.00000</ele>
<time>2010-11-01T01:01:51Z</time>
</trkpt>
<trkpt lat="43.891243" lon="5.410638">
<ele>379.00000</ele>
<time>2010-11-01T01:02:21Z</time>
</trkpt>
<trkpt lat="43.891707" lon="5.410595">
<ele>377.00000</ele>
<time>2010-11-01T01:02:40Z</time>
</trkpt>
<trkpt lat="43.892078" lon="5.410638">
<ele>377.00000</ele>
<time>2010-11-01T01:02:55Z</time>
</trkpt>
<trkpt lat="43.892852" lon="5.411882">
<ele>367.00000</ele>
<time>2010-11-01T01:03:42Z</time>
</trkpt>
<trkpt lat="43.893408" lon="5.412655">
<ele>376.00000</ele>
<time>2010-11-01T01:04:14Z</time>
</trkpt>
<trkpt lat="43.893687" lon="5.413170">
<ele>375.00000</ele>
<time>2010-11-01T01:04:32Z</time>
</trkpt>
<trkpt lat="43.894027" lon="5.412698">
<ele>383.00000</ele>
<time>2010-11-01T01:04:51Z</time>
</trkpt>
<trkpt lat="43.894398" lon="5.412054">
<ele>387.00000</ele>
<time>2010-11-01T01:05:15Z</time>
</trkpt>
<trkpt lat="43.894738" lon="5.411325">
<ele>392.00000</ele>
<time>2010-11-01T01:05:40Z</time>
</trkpt>
<trkpt lat="43.895109" lon="5.410681">
<ele>401.00000</ele>
<time>2010-11-01T01:06:04Z</time>
</trkpt>
<trkpt lat="43.894955" lon="5.410252">
<ele>407.00000</ele>
<time>2010-11-01T01:06:18Z</time>
</trkpt>
<trkpt lat="43.894583" lon="5.410037">
<ele>407.00000</ele>
<time>2010-11-01T01:06:34Z</time>
</trkpt>
<trkpt lat="43.893254" lon="5.408149">
<ele>402.00000</ele>
<time>2010-11-01T01:07:50Z</time>
</trkpt>
<trkpt lat="43.892542" lon="5.407720">
<ele>399.00000</ele>
<time>2010-11-01T01:08:21Z</time>
</trkpt>
<trkpt lat="43.890903" lon="5.407076">
<ele>394.00000</ele>
<time>2010-11-01T01:09:29Z</time>
</trkpt>
<trkpt lat="43.890594" lon="5.406947">
<ele>394.00000</ele>
<time>2010-11-01T01:09:42Z</time>
</trkpt>
<trkpt lat="43.891274" lon="5.406518">
<ele>396.00000</ele>
<time>2010-11-01T01:10:12Z</time>
</trkpt>
<trkpt lat="43.891584" lon="5.406046">
<ele>396.00000</ele>
<time>2010-11-01T01:10:31Z</time>
</trkpt>
<trkpt lat="43.892264" lon="5.405188">
<ele>404.00000</ele>
<time>2010-11-01T01:11:07Z</time>
</trkpt>
<trkpt lat="43.892666" lon="5.404630">
<ele>404.00000</ele>
<time>2010-11-01T01:11:30Z</time>
</trkpt>
<trkpt lat="43.893006" lon="5.404716">
<ele>409.00000</ele>
<time>2010-11-01T01:11:44Z</time>
</trkpt>
<trkpt lat="43.893779" lon="5.405145">
<ele>410.00000</ele>
<time>2010-11-01T01:12:17Z</time>
</trkpt>
<trkpt lat="43.894398" lon="5.404544">
<ele>405.00000</ele>
<time>2010-11-01T01:12:48Z</time>
</trkpt>
<trkpt lat="43.895264" lon="5.404587">
<ele>412.00000</ele>
<time>2010-11-01T01:13:22Z</time>
</trkpt>
<trkpt lat="43.896284" lon="5.405102">
<ele>424.00000</ele>
<time>2010-11-01T01:14:06Z</time>
</trkpt>
<trkpt lat="43.897390" lon="5.404850">
<ele>432.00000</ele>
<time>2010-11-01T01:14:51Z</time>
</trkpt>
<trkpt lat="43.897890" lon="5.404890">
<ele>432.00000</ele>
<time>2010-11-01T01:15:11Z</time>
</trkpt>
<trkpt lat="43.898100" lon="5.404960">
<ele>434.00000</ele>
<time>2010-11-01T01:15:19Z</time>
</trkpt>
<trkpt lat="43.898410" lon="5.405220">
<ele>434.00000</ele>
<time>2010-11-01T01:15:34Z</time>
</trkpt>
<trkpt lat="43.898660" lon="5.405650">
<ele>439.00000</ele>
<time>2010-11-01T01:15:50Z</time>
</trkpt>
<trkpt lat="43.898920" lon="5.406380">
<ele>441.00000</ele>
<time>2010-11-01T01:16:13Z</time>
</trkpt>
<trkpt lat="43.899230" lon="5.407090">
<ele>442.00000</ele>
<time>2010-11-01T01:16:37Z</time>
</trkpt>
<trkpt lat="43.899680" lon="5.407690">
<ele>442.00000</ele>
<time>2010-11-01T01:17:02Z</time>
</trkpt>
<trkpt lat="43.900430" lon="5.408430">
<ele>438.00000</ele>
<time>2010-11-01T01:17:39Z</time>
</trkpt>
<trkpt lat="43.900950" lon="5.408610">
<ele>438.00000</ele>
<time>2010-11-01T01:18:00Z</time>
</trkpt>
<trkpt lat="43.901210" lon="5.408760">
<ele>442.00000</ele>
<time>2010-11-01T01:18:12Z</time>
</trkpt>
<trkpt lat="43.901910" lon="5.409410">
<ele>436.00000</ele>
<time>2010-11-01T01:18:45Z</time>
</trkpt>
<trkpt lat="43.902720" lon="5.409850">
<ele>438.00000</ele>
<time>2010-11-01T01:19:20Z</time>
</trkpt>
<trkpt lat="43.903090" lon="5.410150">
<ele>420.00000</ele>
<time>2010-11-01T01:19:37Z</time>
</trkpt>
<trkpt lat="43.903340" lon="5.410190">
<ele>420.00000</ele>
<time>2010-11-01T01:19:47Z</time>
</trkpt>
<trkpt lat="43.903640" lon="5.410020">
<ele>420.00000</ele>
<time>2010-11-01T01:20:00Z</time>
</trkpt>
<trkpt lat="43.903750" lon="5.410010">
<ele>408.00000</ele>
<time>2010-11-01T01:20:05Z</time>
</trkpt>
<trkpt lat="43.903900" lon="5.410090">
<ele>408.00000</ele>
<time>2010-11-01T01:20:11Z</time>
</trkpt>
<trkpt lat="43.904060" lon="5.410220">
<ele>408.00000</ele>
<time>2010-11-01T01:20:19Z</time>
</trkpt>
<trkpt lat="43.904680" lon="5.411060">
<ele>399.00000</ele>
<time>2010-11-01T01:20:53Z</time>
</trkpt>
<trkpt lat="43.905240" lon="5.411670">
<ele>408.00000</ele>
<time>2010-11-01T01:21:22Z</time>
</trkpt>
<trkpt lat="43.905550" lon="5.412150">
<ele>401.00000</ele>
<time>2010-11-01T01:21:41Z</time>
</trkpt>
<trkpt lat="43.905710" lon="5.412140">
<ele>401.00000</ele>
<time>2010-11-01T01:21:47Z</time>
</trkpt>
<trkpt lat="43.906240" lon="5.411290">
<ele>396.00000</ele>
<time>2010-11-01T01:22:19Z</time>
</trkpt>
<trkpt lat="43.906320" lon="5.411230">
<ele>389.00000</ele>
<time>2010-11-01T01:22:23Z</time>
</trkpt>
<trkpt lat="43.906480" lon="5.411310">
<ele>394.00000</ele>
<time>2010-11-01T01:22:30Z</time>
</trkpt>
<trkpt lat="43.907610" lon="5.413070">
<ele>400.00000</ele>
<time>2010-11-01T01:23:38Z</time>
</trkpt>
<trkpt lat="43.907780" lon="5.413400">
<ele>400.00000</ele>
<time>2010-11-01T01:23:49Z</time>
</trkpt>
<trkpt lat="43.907830" lon="5.413600">
<ele>400.00000</ele>
<time>2010-11-01T01:23:56Z</time>
</trkpt>
<trkpt lat="43.907850" lon="5.413750">
<ele>404.00000</ele>
<time>2010-11-01T01:24:00Z</time>
</trkpt>
<trkpt lat="43.907820" lon="5.413970">
<ele>404.00000</ele>
<time>2010-11-01T01:24:06Z</time>
</trkpt>
<trkpt lat="43.907760" lon="5.414070">
<ele>404.00000</ele>
<time>2010-11-01T01:24:10Z</time>
</trkpt>
<trkpt lat="43.907620" lon="5.414300">
<ele>404.00000</ele>
<time>2010-11-01T01:24:19Z</time>
</trkpt>
<trkpt lat="43.907600" lon="5.414480">
<ele>404.00000</ele>
<time>2010-11-01T01:24:24Z</time>
</trkpt>
<trkpt lat="43.907640" lon="5.414640">
<ele>416.00000</ele>
<time>2010-11-01T01:24:29Z</time>
</trkpt>
<trkpt lat="43.908020" lon="5.415240">
<ele>400.00000</ele>
<time>2010-11-01T01:24:52Z</time>
</trkpt>
<trkpt lat="43.908390" lon="5.415330">
<ele>400.00000</ele>
<time>2010-11-01T01:25:07Z</time>
</trkpt>
<trkpt lat="43.908680" lon="5.415260">
<ele>400.00000</ele>
<time>2010-11-01T01:25:19Z</time>
</trkpt>
<trkpt lat="43.908810" lon="5.415310">
<ele>388.00000</ele>
<time>2010-11-01T01:25:24Z</time>
</trkpt>
<trkpt lat="43.908970" lon="5.415470">
<ele>403.00000</ele>
<time>2010-11-01T01:25:32Z</time>
</trkpt>
<trkpt lat="43.909090" lon="5.415490">
<ele>403.00000</ele>
<time>2010-11-01T01:25:37Z</time>
</trkpt>
<trkpt lat="43.909170" lon="5.415470">
<ele>403.00000</ele>
<time>2010-11-01T01:25:40Z</time>
</trkpt>
<trkpt lat="43.909190" lon="5.415320">
<ele>388.00000</ele>
<time>2010-11-01T01:25:45Z</time>
</trkpt>
<trkpt lat="43.908900" lon="5.414940">
<ele>388.00000</ele>
<time>2010-11-01T01:26:01Z</time>
</trkpt>
<trkpt lat="43.908870" lon="5.414810">
<ele>388.00000</ele>
<time>2010-11-01T01:26:05Z</time>
</trkpt>
<trkpt lat="43.908900" lon="5.414730">
<ele>388.00000</ele>
<time>2010-11-01T01:26:07Z</time>
</trkpt>
<trkpt lat="43.908990" lon="5.414610">
<ele>388.00000</ele>
<time>2010-11-01T01:26:12Z</time>
</trkpt>
<trkpt lat="43.909550" lon="5.414390">
<ele>374.00000</ele>
<time>2010-11-01T01:26:35Z</time>
</trkpt>
<trkpt lat="43.909680" lon="5.414250">
<ele>375.00000</ele>
<time>2010-11-01T01:26:42Z</time>
</trkpt>
<trkpt lat="43.909970" lon="5.413750">
<ele>375.00000</ele>
<time>2010-11-01T01:27:01Z</time>
</trkpt>
<trkpt lat="43.910110" lon="5.413630">
<ele>366.00000</ele>
<time>2010-11-01T01:27:07Z</time>
</trkpt>
<trkpt lat="43.910330" lon="5.413580">
<ele>366.00000</ele>
<time>2010-11-01T01:27:16Z</time>
</trkpt>
<trkpt lat="43.910420" lon="5.413510">
<ele>368.00000</ele>
<time>2010-11-01T01:27:20Z</time>
</trkpt>
<trkpt lat="43.910350" lon="5.413370">
<ele>366.00000</ele>
<time>2010-11-01T01:27:25Z</time>
</trkpt>
<trkpt lat="43.910160" lon="5.413320">
<ele>366.00000</ele>
<time>2010-11-01T01:27:33Z</time>
</trkpt>
<trkpt lat="43.910150" lon="5.413250">
<ele>366.00000</ele>
<time>2010-11-01T01:27:35Z</time>
</trkpt>
<trkpt lat="43.910350" lon="5.412690">
<ele>352.00000</ele>
<time>2010-11-01T01:27:53Z</time>
</trkpt>
<trkpt lat="43.910480" lon="5.412450">
<ele>357.00000</ele>
<time>2010-11-01T01:28:02Z</time>
</trkpt>
<trkpt lat="43.910680" lon="5.412220">
<ele>357.00000</ele>
<time>2010-11-01T01:28:12Z</time>
</trkpt>
<trkpt lat="43.910920" lon="5.412050">
<ele>341.00000</ele>
<time>2010-11-01T01:28:23Z</time>
</trkpt>
<trkpt lat="43.911150" lon="5.411990">
<ele>341.00000</ele>
<time>2010-11-01T01:28:32Z</time>
</trkpt>
<trkpt lat="43.911620" lon="5.412000">
<ele>338.00000</ele>
<time>2010-11-01T01:28:51Z</time>
</trkpt>
<trkpt lat="43.911800" lon="5.412100">
<ele>353.00000</ele>
<time>2010-11-01T01:28:59Z</time>
</trkpt>
<trkpt lat="43.911900" lon="5.412230">
<ele>353.00000</ele>
<time>2010-11-01T01:29:04Z</time>
</trkpt>
<trkpt lat="43.911990" lon="5.412470">
<ele>353.00000</ele>
<time>2010-11-01T01:29:12Z</time>
</trkpt>
<trkpt lat="43.912150" lon="5.413700">
<ele>335.00000</ele>
<time>2010-11-01T01:29:48Z</time>
</trkpt>
<trkpt lat="43.912230" lon="5.413910">
<ele>337.00000</ele>
<time>2010-11-01T01:29:55Z</time>
</trkpt>
<trkpt lat="43.912390" lon="5.414150">
<ele>337.00000</ele>
<time>2010-11-01T01:30:04Z</time>
</trkpt>
<trkpt lat="43.912510" lon="5.414180">
<ele>337.00000</ele>
<time>2010-11-01T01:30:09Z</time>
</trkpt>
<trkpt lat="43.912670" lon="5.414080">
<ele>337.00000</ele>
<time>2010-11-01T01:30:16Z</time>
</trkpt>
<trkpt lat="43.912720" lon="5.413980">
<ele>337.00000</ele>
<time>2010-11-01T01:30:20Z</time>
</trkpt>
<trkpt lat="43.912740" lon="5.413780">
<ele>337.00000</ele>
<time>2010-11-01T01:30:26Z</time>
</trkpt>
<trkpt lat="43.912710" lon="5.413660">
<ele>335.00000</ele>
<time>2010-11-01T01:30:29Z</time>
</trkpt>
<trkpt lat="43.912500" lon="5.413380">
<ele>335.00000</ele>
<time>2010-11-01T01:30:41Z</time>
</trkpt>
<trkpt lat="43.912500" lon="5.413230">
<ele>335.00000</ele>
<time>2010-11-01T01:30:45Z</time>
</trkpt>
<trkpt lat="43.912580" lon="5.412970">
<ele>335.00000</ele>
<time>2010-11-01T01:30:53Z</time>
</trkpt>
<trkpt lat="43.912750" lon="5.412690">
<ele>336.00000</ele>
<time>2010-11-01T01:31:04Z</time>
</trkpt>
<trkpt lat="43.912870" lon="5.411990">
<ele>325.00000</ele>
<time>2010-11-01T01:31:25Z</time>
</trkpt>
<trkpt lat="43.912920" lon="5.411920">
<ele>317.00000</ele>
<time>2010-11-01T01:31:28Z</time>
</trkpt>
<trkpt lat="43.913520" lon="5.412220">
<ele>323.00000</ele>
<time>2010-11-01T01:31:53Z</time>
</trkpt>
<trkpt lat="43.914050" lon="5.413040">
<ele>321.00000</ele>
<time>2010-11-01T01:32:25Z</time>
</trkpt>
<trkpt lat="43.914360" lon="5.413200">
<ele>321.00000</ele>
<time>2010-11-01T01:32:38Z</time>
</trkpt>
<trkpt lat="43.914760" lon="5.412930">
<ele>311.00000</ele>
<time>2010-11-01T01:32:56Z</time>
</trkpt>
<trkpt lat="43.914880" lon="5.412900">
<ele>308.00000</ele>
<time>2010-11-01T01:33:01Z</time>
</trkpt>
<trkpt lat="43.916090" lon="5.412790">
<ele>304.00000</ele>
<time>2010-11-01T01:33:49Z</time>
</trkpt>
<trkpt lat="43.916210" lon="5.412740">
<ele>304.00000</ele>
<time>2010-11-01T01:33:54Z</time>
</trkpt>
<trkpt lat="43.917000" lon="5.411880">
<ele>297.00000</ele>
<time>2010-11-01T01:34:34Z</time>
</trkpt>
<trkpt lat="43.917230" lon="5.411610">
<ele>293.00000</ele>
<time>2010-11-01T01:34:47Z</time>
</trkpt>
<trkpt lat="43.917720" lon="5.410880">
<ele>293.00000</ele>
<time>2010-11-01T01:35:15Z</time>
</trkpt>
<trkpt lat="43.917910" lon="5.410800">
<ele>293.00000</ele>
<time>2010-11-01T01:35:23Z</time>
</trkpt>
<trkpt lat="43.918400" lon="5.410850">
<ele>286.00000</ele>
<time>2010-11-01T01:35:43Z</time>
</trkpt>
<trkpt lat="43.918500" lon="5.410800">
<ele>286.00000</ele>
<time>2010-11-01T01:35:47Z</time>
</trkpt>
<trkpt lat="43.918580" lon="5.410700">
<ele>286.00000</ele>
<time>2010-11-01T01:35:51Z</time>
</trkpt>
<trkpt lat="43.918830" lon="5.409910">
<ele>283.00000</ele>
<time>2010-11-01T01:36:16Z</time>
</trkpt>
<trkpt lat="43.919630" lon="5.410690">
<ele>287.00000</ele>
<time>2010-11-01T01:36:56Z</time>
</trkpt>
<trkpt lat="43.919940" lon="5.410470">
<ele>287.00000</ele>
<time>2010-11-01T01:37:09Z</time>
</trkpt>
<trkpt lat="43.920810" lon="5.410130">
<ele>282.00000</ele>
<time>2010-11-01T01:37:46Z</time>
</trkpt>
<trkpt lat="43.921190" lon="5.409920">
<ele>282.00000</ele>
<time>2010-11-01T01:38:02Z</time>
</trkpt>
<trkpt lat="43.921560" lon="5.409610">
<ele>280.00000</ele>
<time>2010-11-01T01:38:19Z</time>
</trkpt>
<trkpt lat="43.921760" lon="5.409320">
<ele>279.00000</ele>
<time>2010-11-01T01:38:31Z</time>
</trkpt>
<trkpt lat="43.921900" lon="5.409030">
<ele>279.00000</ele>
<time>2010-11-01T01:38:41Z</time>
</trkpt>
<trkpt lat="43.922020" lon="5.408320">
<ele>278.00000</ele>
<time>2010-11-01T01:39:02Z</time>
</trkpt>
<trkpt lat="43.922150" lon="5.408310">
<ele>284.00000</ele>
<time>2010-11-01T01:39:07Z</time>
</trkpt>
<trkpt lat="43.924100" lon="5.408810">
<ele>288.00000</ele>
<time>2010-11-01T01:40:27Z</time>
</trkpt>
<trkpt lat="43.923910" lon="5.409060">
<ele>288.00000</ele>
<time>2010-11-01T01:40:37Z</time>
</trkpt>
<trkpt lat="43.923860" lon="5.409190">
<ele>288.00000</ele>
<time>2010-11-01T01:40:41Z</time>
</trkpt>
<trkpt lat="43.923570" lon="5.410420">
<ele>284.00000</ele>
<time>2010-11-01T01:41:19Z</time>
</trkpt>
<trkpt lat="43.923430" lon="5.410880">
<ele>284.00000</ele>
<time>2010-11-01T01:41:33Z</time>
</trkpt>
<trkpt lat="43.922650" lon="5.412280">
<ele>287.00000</ele>
<time>2010-11-01T01:42:24Z</time>
</trkpt>
<trkpt lat="43.922650" lon="5.412660">
<ele>287.00000</ele>
<time>2010-11-01T01:42:35Z</time>
</trkpt>
<trkpt lat="43.922990" lon="5.415340">
<ele>291.00000</ele>
<time>2010-11-01T01:43:53Z</time>
</trkpt>
<trkpt lat="43.923210" lon="5.416500">
<ele>298.00000</ele>
<time>2010-11-01T01:44:28Z</time>
</trkpt>
<trkpt lat="43.923670" lon="5.418130">
<ele>302.00000</ele>
<time>2010-11-01T01:45:19Z</time>
</trkpt>
<trkpt lat="43.924010" lon="5.419060">
<ele>305.00000</ele>
<time>2010-11-01T01:45:49Z</time>
</trkpt>
<trkpt lat="43.924210" lon="5.419730">
<ele>309.00000</ele>
<time>2010-11-01T01:46:09Z</time>
</trkpt>
<trkpt lat="43.924640" lon="5.421590">
<ele>314.00000</ele>
<time>2010-11-01T01:47:06Z</time>
</trkpt>
<trkpt lat="43.924800" lon="5.422250">
<ele>315.00000</ele>
<time>2010-11-01T01:47:26Z</time>
</trkpt>
<trkpt lat="43.925100" lon="5.422770">
<ele>315.00000</ele>
<time>2010-11-01T01:47:45Z</time>
</trkpt>
<trkpt lat="43.925420" lon="5.423120">
<ele>317.00000</ele>
<time>2010-11-01T01:48:01Z</time>
</trkpt>
<trkpt lat="43.925870" lon="5.423480">
<ele>317.00000</ele>
<time>2010-11-01T01:48:22Z</time>
</trkpt>
<trkpt lat="43.926290" lon="5.423730">
<ele>317.00000</ele>
<time>2010-11-01T01:48:40Z</time>
</trkpt>
<trkpt lat="43.926430" lon="5.423880">
<ele>319.00000</ele>
<time>2010-11-01T01:48:48Z</time>
</trkpt>
<trkpt lat="43.927670" lon="5.425690">
<ele>326.00000</ele>
<time>2010-11-01T01:50:00Z</time>
</trkpt>
<trkpt lat="43.928070" lon="5.426210">
<ele>326.00000</ele>
<time>2010-11-01T01:50:22Z</time>
</trkpt>
<trkpt lat="43.927880" lon="5.425960">
<ele>326.00000</ele>
<time>2010-11-01T01:50:32Z</time>
</trkpt>
<trkpt lat="43.927730" lon="5.426810">
<ele>327.00000</ele>
<time>2010-11-01T01:50:57Z</time>
</trkpt>
<trkpt lat="43.927580" lon="5.427410">
<ele>329.00000</ele>
<time>2010-11-01T01:51:16Z</time>
</trkpt>
<trkpt lat="43.927280" lon="5.428190">
<ele>333.00000</ele>
<time>2010-11-01T01:51:41Z</time>
</trkpt>
<trkpt lat="43.926750" lon="5.429190">
<ele>337.00000</ele>
<time>2010-11-01T01:52:17Z</time>
</trkpt>
<trkpt lat="43.926490" lon="5.429790">
<ele>340.00000</ele>
<time>2010-11-01T01:52:37Z</time>
</trkpt>
<trkpt lat="43.926170" lon="5.430810">
<ele>343.00000</ele>
<time>2010-11-01T01:53:09Z</time>
</trkpt>
<trkpt lat="43.925460" lon="5.433380">
<ele>348.00000</ele>
<time>2010-11-01T01:54:28Z</time>
</trkpt>
<trkpt lat="43.925320" lon="5.434760">
<ele>349.00000</ele>
<time>2010-11-01T01:55:09Z</time>
</trkpt>
<trkpt lat="43.925220" lon="5.437970">
<ele>331.00000</ele>
<time>2010-11-01T01:56:41Z</time>
</trkpt>
<trkpt lat="43.925260" lon="5.438360">
<ele>331.00000</ele>
<time>2010-11-01T01:56:53Z</time>
</trkpt>
<trkpt lat="43.925550" lon="5.439330">
<ele>330.00000</ele>
<time>2010-11-01T01:57:23Z</time>
</trkpt>
<trkpt lat="43.925800" lon="5.440000">
<ele>327.00000</ele>
<time>2010-11-01T01:57:45Z</time>
</trkpt>
<trkpt lat="43.925910" lon="5.440720">
<ele>326.00000</ele>
<time>2010-11-01T01:58:06Z</time>
</trkpt>
<trkpt lat="43.925340" lon="5.442450">
<ele>324.00000</ele>
<time>2010-11-01T01:59:01Z</time>
</trkpt>
<trkpt lat="43.925120" lon="5.444960">
<ele>329.00000</ele>
<time>2010-11-01T02:00:14Z</time>
</trkpt>
<trkpt lat="43.925170" lon="5.445960">
<ele>330.00000</ele>
<time>2010-11-01T02:00:43Z</time>
</trkpt>
<trkpt lat="43.925150" lon="5.446620">
<ele>330.00000</ele>
<time>2010-11-01T02:01:02Z</time>
</trkpt>
<trkpt lat="43.924980" lon="5.447140">
<ele>333.00000</ele>
<time>2010-11-01T02:01:18Z</time>
</trkpt>
<trkpt lat="43.924270" lon="5.448910">
<ele>333.00000</ele>
<time>2010-11-01T02:02:16Z</time>
</trkpt>
<trkpt lat="43.924200" lon="5.449580">
<ele>333.00000</ele>
<time>2010-11-01T02:02:36Z</time>
</trkpt>
<trkpt lat="43.924310" lon="5.449930">
<ele>334.00000</ele>
<time>2010-11-01T02:02:47Z</time>
</trkpt>
<trkpt lat="43.923960" lon="5.450210">
<ele>334.00000</ele>
<time>2010-11-01T02:03:03Z</time>
</trkpt>
<trkpt lat="43.923800" lon="5.450470">
<ele>332.00000</ele>
<time>2010-11-01T02:03:13Z</time>
</trkpt>
<trkpt lat="43.923740" lon="5.450670">
<ele>331.00000</ele>
<time>2010-11-01T02:03:19Z</time>
</trkpt>
<trkpt lat="43.923730" lon="5.450990">
<ele>331.00000</ele>
<time>2010-11-01T02:03:29Z</time>
</trkpt>
<trkpt lat="43.923970" lon="5.450920">
<ele>332.00000</ele>
<time>2010-11-01T02:03:38Z</time>
</trkpt>
<trkpt lat="43.924420" lon="5.450910">
<ele>332.00000</ele>
<time>2010-11-01T02:03:56Z</time>
</trkpt>
<trkpt lat="43.925150" lon="5.451140">
<ele>336.00000</ele>
<time>2010-11-01T02:04:26Z</time>
</trkpt>
<trkpt lat="43.926310" lon="5.451250">
<ele>352.00000</ele>
<time>2010-11-01T02:05:13Z</time>
</trkpt>
<trkpt lat="43.927300" lon="5.451460">
<ele>357.00000</ele>
<time>2010-11-01T02:05:53Z</time>
</trkpt>
<trkpt lat="43.927890" lon="5.451620">
<ele>357.00000</ele>
<time>2010-11-01T02:06:17Z</time>
</trkpt>
<trkpt lat="43.928040" lon="5.451710">
<ele>364.00000</ele>
<time>2010-11-01T02:06:24Z</time>
</trkpt>
<trkpt lat="43.928300" lon="5.452050">
<ele>364.00000</ele>
<time>2010-11-01T02:06:38Z</time>
</trkpt>
</trkseg>
</trk>
</gpx>
